Observation data for Happy on 06/14/2019      Previous  Date  Next       Current Mesonet Observations  Soil Data  Daily Summary Page  Observations in Plain Language
KHA2 140500Z 14010KT 23/16 A3003 RMK A01 T02270157  RH  064%=      5-min Rain = 0
KHA2 140501Z 14009KT 23/16 A3003 RMK A01 T02280157  RH  064%=      5-min Rain = 0
KHA2 140502Z 14009KT 23/16 A3003 RMK A01 T02280157  RH  064%=      5-min Rain = 0
KHA2 140503Z 14008KT 23/16 A3004 RMK A01 T02280157  RH  064%=      5-min Rain = 0
KHA2 140504Z 14008KT 23/16 A3004 RMK A01 T02280157  RH  064%=      5-min Rain = 0
KHA2 140505Z 14007KT 23/16 A3004 RMK A01 T02280157  RH  064%=      5-min Rain = 0
KHA2 140506Z 13006KT 23/16 A3005 RMK A01 T02280157  RH  064%=      5-min Rain = 0
KHA2 140507Z 13005KT 23/16 A3005 RMK A01 T02280158  RH  064%=      5-min Rain = 0
KHA2 140508Z 11004KT 23/16 A3006 RMK A01 T02280157  RH  064%=      5-min Rain = 0
KHA2 140509Z 15002KT 23/16 A3007 RMK A01 T02280158  RH  064%=      5-min Rain = 0
KHA2 140510Z 36004KT 23/16 A3007 RMK A01 T02290157  RH  064%=      5-min Rain = 0
KHA2 140511Z 36007KT 23/16 A3008 RMK A01 T02290156  RH  064%=      5-min Rain = 0
KHA2 140512Z 35009KT 23/15 A3008 RMK A01 T02290154  RH  063%=      5-min Rain = 0
KHA2 140513Z 34011KT 23/16 A3009 RMK A01 T02290155  RH  063%=      5-min Rain = 0
KHA2 140514Z 34013KT 23/16 A3009 RMK A01 T02290155  RH  063%=      5-min Rain = 0
KHA2 140515Z 34013KT 23/16 A301 RMK A01 T02280156  RH  064%=      5-min Rain = 0
KHA2 140516Z 34014KT 23/16 A301 RMK A01 T02280157  RH  064%=      5-min Rain = 0
KHA2 140517Z 34013KT 23/16 A301 RMK A01 T02270157  RH  064%=      5-min Rain = 0
KHA2 140518Z 34014KT 23/16 A301 RMK A01 T02270157  RH  065%=      5-min Rain = 0
KHA2 140519Z 35014KT 23/16 A3011 RMK A01 T02270157  RH  064%=      5-min Rain = 0
KHA2 140520Z 34013KT 23/16 A3011 RMK A01 T02280157  RH  064%=      5-min Rain = 0
KHA2 140521Z 35015KT 23/16 A3011 RMK A01 T02270156  RH  064%=      5-min Rain = 0
KHA2 140522Z 35014KT 23/16 A3011 RMK A01 T02270157  RH  064%=      5-min Rain = 0
KHA2 140523Z 36014KT 23/16 A3011 RMK A01 T02270157  RH  065%=      5-min Rain = 0
KHA2 140524Z 00014KT 23/16 A3011 RMK A01 T02270158  RH  065%=      5-min Rain = 0
KHA2 140525Z 00014KT 23/16 A3011 RMK A01 T02260159  RH  066%=      5-min Rain = 0
KHA2 140526Z 01016KT 23/16 A3011 RMK A01 T02250160  RH  066%=      5-min Rain = 0
KHA2 140527Z 01015KT 22/16 A3011 RMK A01 T02240161  RH  067%=      5-min Rain = 0
KHA2 140528Z 02015KT 22/16 A301 RMK A01 T02230162  RH  068%=      5-min Rain = 0
KHA2 140529Z 03015KT 22/16 A301 RMK A01 T02230163  RH  069%=      5-min Rain = 0
KHA2 140530Z 03016KT 22/17 A301 RMK A01 T02220165  RH  070%=      5-min Rain = 0
KHA2 140531Z 03015KT 22/17 A301 RMK A01 T02200166  RH  072%=      5-min Rain = 0
KHA2 140532Z 03016KT 22/17 A301 RMK A01 T02180168  RH  073%=      5-min Rain = 0
KHA2 140533Z 03017KT 22/17 A301 RMK A01 T02160168  RH  074%=      5-min Rain = 0
KHA2 140534Z 03014KT 22/17 A3011 RMK A01 T02150170  RH  076%=      5-min Rain = 0
KHA2 140535Z 02015KT 21/17 A3011 RMK A01 T02130171  RH  077%=      5-min Rain = 0
KHA2 140536Z 02015KT 21/17 A3011 RMK A01 T02120172  RH  078%=      5-min Rain = 0
KHA2 140537Z 02014KT 21/17 A3011 RMK A01 T02110172  RH  078%=      5-min Rain = 0
KHA2 140538Z 02013KT 21/17 A3011 RMK A01 T02100173  RH  079%=      5-min Rain = 0
KHA2 140539Z 02015KT 21/17 A3011 RMK A01 T02080173  RH  080%=      5-min Rain = 0
KHA2 140540Z 03018KT 21/17 A3011 RMK A01 T02060171  RH  080%=      5-min Rain = 0
KHA2 140541Z 03017G22KT 20/17 A301 RMK A01 T02040170  RH  081%=      5-min Rain = 0
KHA2 140542Z 04017KT 20/17 A3009 RMK A01 T02010169  RH  082%=      5-min Rain = 0
KHA2 140543Z 04019KT 20/17 A3009 RMK A01 T01990168  RH  082%=      5-min Rain = 0
KHA2 140544Z 04017KT 20/17 A3008 RMK A01 T01970168  RH  083%=      5-min Rain = 0
KHA2 140545Z 05016KT 20/17 A3008 RMK A01 T01960169  RH  084%=      5-min Rain = 0
KHA2 140546Z 05014KT 20/17 A3008 RMK A01 T01950169  RH  084%=      5-min Rain = 0
KHA2 140547Z 05014KT 20/17 A3008 RMK A01 T01950169  RH  085%=      5-min Rain = 0
KHA2 140548Z 05014G19KT 19/17 A3008 RMK A01 T01940169  RH  086%=      5-min Rain = 0
KHA2 140549Z 06017KT 19/17 A3008 RMK A01 T01930168  RH  086%=      5-min Rain = 0
KHA2 140550Z 06015KT 19/17 A3009 RMK A01 T01920167  RH  086%=      5-min Rain = 0
KHA2 140551Z 06013KT 19/17 A3009 RMK A01 T01900166  RH  086%=      5-min Rain = 0
KHA2 140552Z 06015KT 19/17 A3009 RMK A01 T01890167  RH  087%=      5-min Rain = 0
KHA2 140553Z 06016KT 19/17 A3009 RMK A01 T01880166  RH  087%=      5-min Rain = 0
KHA2 140554Z 06017KT 19/17 A3009 RMK A01 T01870166  RH  088%=      5-min Rain = 0
KHA2 140555Z 06015KT 19/17 A3009 RMK A01 T01860166  RH  088%=      5-min Rain = 0
KHA2 140556Z 07013KT 19/17 A3009 RMK A01 T01850166  RH  088%=      5-min Rain = 0
KHA2 140557Z 07010KT 19/17 A3009 RMK A01 T01850167  RH  089%=      5-min Rain = 0
KHA2 140558Z 07011KT 19/17 A3009 RMK A01 T01850167  RH  090%=      5-min Rain = 0
KHA2 140559Z 08012KT 18/17 A3009 RMK A01 T01840167  RH  090%=      5-min Rain = 0
KHA2 140600Z 07012KT 18/17 A3009 RMK A01 T01830166  RH  090%=      5-min Rain = 0
KHA2 140601Z 07013KT 18/17 A3009 RMK A01 T01830166  RH  090%=      5-min Rain = 0
KHA2 140602Z 08012KT 18/17 A3009 RMK A01 T01820165  RH  090%=      5-min Rain = 0
KHA2 140603Z 08012KT 18/17 A3009 RMK A01 T01820165  RH  090%=      5-min Rain = 0
KHA2 140604Z 07012KT 18/17 A3009 RMK A01 T01820166  RH  090%=      5-min Rain = 0
KHA2 140605Z 08013KT 18/17 A3009 RMK A01 T01820166  RH  090%=      5-min Rain = 0
KHA2 140606Z 08013KT 18/17 A3009 RMK A01 T01820166  RH  090%=      5-min Rain = 0
KHA2 140607Z 07014KT 18/17 A3009 RMK A01 T01810166  RH  091%=      5-min Rain = 0
KHA2 140608Z 07015KT 18/17 A3009 RMK A01 T01810165  RH  090%=      5-min Rain = 0
KHA2 140609Z 08016KT 18/17 A3009 RMK A01 T01810165  RH  090%=      5-min Rain = 0
KHA2 140610Z 07016KT 18/16 A3009 RMK A01 T01810164  RH  090%=      5-min Rain = 0
KHA2 140611Z 08016KT 18/17 A3009 RMK A01 T01810165  RH  090%=      5-min Rain = 0
KHA2 140612Z 08015KT 18/16 A3009 RMK A01 T01810164  RH  090%=      5-min Rain = 0
KHA2 140613Z 08017KT 18/16 A301 RMK A01 T01810164  RH  090%=      5-min Rain = 0
KHA2 140614Z 08017KT 18/16 A301 RMK A01 T01800163  RH  090%=      5-min Rain = 0
KHA2 140615Z 08015KT 18/16 A301 RMK A01 T01790163  RH  090%=      5-min Rain = 0
KHA2 140616Z 08013G18KT 18/16 A301 RMK A01 T01780162  RH  090%=      5-min Rain = 0
KHA2 140617Z 08016KT 18/16 A301 RMK A01 T01760160  RH  090%=      5-min Rain = 0
KHA2 140618Z 08017KT 17/16 A301 RMK A01 T01740157  RH  090%=      5-min Rain = 0
KHA2 140619Z 07016KT 17/16 A301 RMK A01 T01720156  RH  090%=      5-min Rain = 0
KHA2 140620Z 08015KT 17/16 A301 RMK A01 T01700156  RH  091%=      5-min Rain = 0
KHA2 140621Z 08016KT 17/16 A301 RMK A01 T01690156  RH  092%=      5-min Rain = 0
KHA2 140622Z 08014KT 17/16 A301 RMK A01 T01690156  RH  092%=      5-min Rain = 0
KHA2 140623Z 08014KT 17/16 A301 RMK A01 T01680156  RH  092%=      5-min Rain = 0
KHA2 140624Z 08015KT 17/16 A3009 RMK A01 T01680156  RH  093%=      5-min Rain = 0
KHA2 140625Z 08014KT 17/16 A3009 RMK A01 T01670155  RH  093%=      5-min Rain = 0
KHA2 140626Z 09016KT 17/16 A3009 RMK A01 T01660155  RH  093%=      5-min Rain = 0
KHA2 140627Z 09016KT 17/15 A3009 RMK A01 T01660153  RH  092%=      5-min Rain = 0
KHA2 140628Z 08013KT 17/15 A3009 RMK A01 T01650152  RH  092%=      5-min Rain = 0
KHA2 140629Z 08013KT 16/15 A3009 RMK A01 T01640152  RH  092%=      5-min Rain = 0
KHA2 140630Z 08016KT 16/15 A3009 RMK A01 T01640152  RH  093%=      5-min Rain = 0
KHA2 140631Z 08016KT 16/15 A3008 RMK A01 T01640152  RH  093%=      5-min Rain = 0
KHA2 140632Z 08015KT 16/15 A3008 RMK A01 T01640151  RH  092%=      5-min Rain = 0
KHA2 140633Z 09014KT 16/15 A3008 RMK A01 T01630152  RH  093%=      5-min Rain = 0
KHA2 140634Z 09013KT 16/15 A3008 RMK A01 T01630151  RH  093%=      5-min Rain = 0
KHA2 140635Z 09017KT 16/15 A3008 RMK A01 T01620151  RH  093%=      5-min Rain = 0
KHA2 140636Z 09016KT 16/15 A3008 RMK A01 T01630151  RH  093%=      5-min Rain = 0
KHA2 140637Z 09015KT 16/15 A3008 RMK A01 T01620151  RH  093%=      5-min Rain = 0
KHA2 140638Z 09016KT 16/15 A3008 RMK A01 T01620151  RH  093%=      5-min Rain = 0
KHA2 140639Z 09016KT 16/15 A3008 RMK A01 T01630151  RH  093%=      5-min Rain = 0
KHA2 140640Z 09014KT 16/15 A3008 RMK A01 T01620150  RH  093%=      5-min Rain = 0
KHA2 140641Z 09016KT 16/15 A3008 RMK A01 T01620150  RH  093%=      5-min Rain = 0
KHA2 140642Z 09015KT 16/15 A3008 RMK A01 T01610149  RH  093%=      5-min Rain = 0
KHA2 140643Z 09016KT 16/15 A3008 RMK A01 T01600149  RH  093%=      5-min Rain = 0
KHA2 140644Z 09017KT 16/15 A3008 RMK A01 T01590149  RH  094%=      5-min Rain = 0
KHA2 140645Z 09014KT 16/15 A3008 RMK A01 T01580149  RH  094%=      5-min Rain = 0
KHA2 140646Z 09015KT 16/15 A3008 RMK A01 T01580149  RH  094%=      5-min Rain = 0
KHA2 140647Z 09014KT 16/15 A3008 RMK A01 T01580149  RH  094%=      5-min Rain = 0
KHA2 140648Z 09011KT 16/15 A3008 RMK A01 T01580150  RH  095%=      5-min Rain = 0
KHA2 140649Z 09011KT 16/15 A3008 RMK A01 T01580149  RH  095%=      5-min Rain = 0
KHA2 140650Z 10012KT 16/15 A3008 RMK A01 T01580150  RH  095%=      5-min Rain = 0
KHA2 140651Z 10013KT 16/15 A3008 RMK A01 T01570149  RH  094%=      5-min Rain = 0
KHA2 140652Z 10012KT 16/15 A3008 RMK A01 T01570148  RH  094%=      5-min Rain = 0
KHA2 140653Z 10013KT 16/15 A3008 RMK A01 T01570148  RH  095%=      5-min Rain = 0
KHA2 140654Z 10012KT 16/15 A3008 RMK A01 T01570148  RH  095%=      5-min Rain = 0
KHA2 140655Z 11011KT 16/15 A3008 RMK A01 T01570148  RH  094%=      5-min Rain = 0
KHA2 140656Z 11013KT 16/15 A3008 RMK A01 T01570147  RH  094%=      5-min Rain = 0
KHA2 140657Z 11013KT 16/15 A3008 RMK A01 T01560146  RH  094%=      5-min Rain = 0
KHA2 140658Z 11013KT 16/15 A3008 RMK A01 T01560146  RH  094%=      5-min Rain = 0
KHA2 140659Z 11014KT 16/15 A3007 RMK A01 T01560146  RH  094%=      5-min Rain = 0
KHA2 140700Z 11012KT 16/15 A3007 RMK A01 T01560146  RH  094%=      5-min Rain = 0
KHA2 140701Z 11012KT 16/15 A3007 RMK A01 T01560146  RH  094%=      5-min Rain = 0
KHA2 140702Z 11012KT 16/15 A3007 RMK A01 T01560146  RH  094%=      5-min Rain = 0
KHA2 140703Z 11013KT 16/15 A3007 RMK A01 T01560146  RH  094%=      5-min Rain = 0
KHA2 140704Z 12011KT 16/15 A3007 RMK A01 T01560146  RH  094%=      5-min Rain = 0
KHA2 140705Z 12012KT 16/15 A3006 RMK A01 T01560146  RH  094%=      5-min Rain = 0
KHA2 140706Z 12012KT 16/15 A3006 RMK A01 T01560146  RH  094%=      5-min Rain = 0
KHA2 140707Z 12013KT 16/15 A3006 RMK A01 T01560146  RH  094%=      5-min Rain = 0
KHA2 140708Z 12014KT 16/15 A3006 RMK A01 T01570147  RH  094%=      5-min Rain = 0
KHA2 140709Z 12015KT 16/15 A3006 RMK A01 T01570147  RH  093%=      5-min Rain = 0
KHA2 140710Z 13014KT 16/15 A3006 RMK A01 T01580147  RH  093%=      5-min Rain = 0
KHA2 140711Z 13013G18KT 16/15 A3006 RMK A01 T01580146  RH  093%=      5-min Rain = 0
KHA2 140712Z 13015KT 16/15 A3005 RMK A01 T01580147  RH  093%=      5-min Rain = 0
KHA2 140713Z 13014KT 16/15 A3005 RMK A01 T01580146  RH  092%=      5-min Rain = 0
KHA2 140714Z 13015KT 16/15 A3005 RMK A01 T01590146  RH  092%=      5-min Rain = 0
KHA2 140715Z 13015KT 16/15 A3005 RMK A01 T01590146  RH  092%=      5-min Rain = 0
KHA2 140716Z 13016KT 16/15 A3005 RMK A01 T01590146  RH  092%=      5-min Rain = 0
KHA2 140717Z 13013KT 16/15 A3005 RMK A01 T01590145  RH  091%=      5-min Rain = 0
KHA2 140718Z 13015KT 16/15 A3005 RMK A01 T01590145  RH  091%=      5-min Rain = 0
KHA2 140719Z 13014KT 16/14 A3005 RMK A01 T01590144  RH  091%=      5-min Rain = 0
KHA2 140720Z 13017KT 16/14 A3004 RMK A01 T01590144  RH  091%=      5-min Rain = 0
KHA2 140721Z 14014KT 16/14 A3005 RMK A01 T01600144  RH  090%=      5-min Rain = 0
KHA2 140722Z 13015KT 16/14 A3004 RMK A01 T01600143  RH  090%=      5-min Rain = 0
KHA2 140723Z 13016KT 16/14 A3004 RMK A01 T01600143  RH  090%=      5-min Rain = 0
KHA2 140724Z 14015KT 16/14 A3004 RMK A01 T01600143  RH  089%=      5-min Rain = 0
KHA2 140725Z 13016KT 16/14 A3004 RMK A01 T01600142  RH  089%=      5-min Rain = 0
KHA2 140726Z 14016KT 16/14 A3004 RMK A01 T01610142  RH  088%=      5-min Rain = 0
KHA2 140727Z 13015G20KT 16/14 A3004 RMK A01 T01610142  RH  088%=      5-min Rain = 0
KHA2 140728Z 13015G20KT 16/14 A3004 RMK A01 T01620142  RH  088%=      5-min Rain = 0
KHA2 140729Z 13016KT 16/14 A3004 RMK A01 T01620141  RH  087%=      5-min Rain = 0
KHA2 140730Z 13016KT 16/14 A3004 RMK A01 T01630141  RH  087%=      5-min Rain = 0
KHA2 140731Z 13015KT 16/14 A3004 RMK A01 T01630141  RH  086%=      5-min Rain = 0
KHA2 140732Z 13015KT 16/14 A3004 RMK A01 T01640141  RH  086%=      5-min Rain = 0
KHA2 140733Z 13015KT 16/14 A3004 RMK A01 T01640141  RH  086%=      5-min Rain = 0
KHA2 140734Z 13013KT 16/14 A3004 RMK A01 T01640140  RH  086%=      5-min Rain = 0
KHA2 140735Z 13015KT 17/14 A3004 RMK A01 T01650140  RH  086%=      5-min Rain = 0
KHA2 140736Z 13014KT 17/14 A3004 RMK A01 T01650140  RH  085%=      5-min Rain = 0
KHA2 140737Z 13014KT 17/14 A3004 RMK A01 T01660140  RH  085%=      5-min Rain = 0
KHA2 140738Z 13013KT 17/14 A3004 RMK A01 T01670140  RH  084%=      5-min Rain = 0
KHA2 140739Z 12012KT 17/14 A3004 RMK A01 T01670140  RH  084%=      5-min Rain = 0
KHA2 140740Z 12015KT 17/14 A3005 RMK A01 T01670140  RH  084%=      5-min Rain = 0
KHA2 140741Z 12013KT 17/14 A3005 RMK A01 T01680140  RH  083%=      5-min Rain = 0
KHA2 140742Z 12011KT 17/14 A3005 RMK A01 T01690140  RH  083%=      5-min Rain = 0
KHA2 140743Z 11012KT 17/14 A3006 RMK A01 T01690139  RH  083%=      5-min Rain = 0
KHA2 140744Z 10013KT 17/14 A3006 RMK A01 T01700140  RH  082%=      5-min Rain = 0
KHA2 140745Z 09010KT 17/14 A3007 RMK A01 T01720141  RH  082%=      5-min Rain = 0
KHA2 140746Z 08011KT 17/14 A3007 RMK A01 T01720141  RH  082%=      5-min Rain = 0
KHA2 140747Z 07011KT 17/14 A3008 RMK A01 T01730142  RH  082%=      5-min Rain = 0
KHA2 140748Z 05012KT 17/14 A3008 RMK A01 T01730141  RH  081%=      5-min Rain = 0
KHA2 140749Z 04013KT 17/14 A3008 RMK A01 T01730141  RH  082%=      5-min Rain = 0
KHA2 140750Z 04013KT 17/14 A3009 RMK A01 T01710141  RH  083%=      5-min Rain = 0
KHA2 140751Z 04014KT 17/14 A3009 RMK A01 T01690141  RH  084%=      5-min Rain = 0
KHA2 140752Z 05014KT 17/14 A3009 RMK A01 T01680142  RH  085%=      5-min Rain = 0
KHA2 140753Z 04014KT 17/14 A3009 RMK A01 T01660141  RH  085%=      5-min Rain = 0
KHA2 140754Z 04013KT 16/14 A3009 RMK A01 T01640142  RH  087%=      5-min Rain = 0
KHA2 140755Z 05013KT 16/14 A3009 RMK A01 T01630142  RH  087%=      5-min Rain = 0
KHA2 140756Z 06010KT 16/14 A3009 RMK A01 T01620141  RH  087%=      5-min Rain = 0
KHA2 140757Z 06014G19KT 16/14 A3009 RMK A01 T01610141  RH  088%=      5-min Rain = 0
KHA2 140758Z 06015KT 16/14 A3009 RMK A01 T01610140  RH  087%=      5-min Rain = 0
KHA2 140759Z 07013KT 16/14 A3009 RMK A01 T01610140  RH  087%=      5-min Rain = 0
KHA2 140800Z 07012KT 16/14 A3008 RMK A01 T01610141  RH  088%=      5-min Rain = 0
KHA2 140801Z 07013KT 16/14 A3008 RMK A01 T01610141  RH  088%=      5-min Rain = 0
KHA2 140802Z 07015KT 16/14 A3008 RMK A01 T01610140  RH  088%=      5-min Rain = 0
KHA2 140803Z 07013KT 16/14 A3008 RMK A01 T01610140  RH  088%=      5-min Rain = 0
KHA2 140804Z 07016KT 16/14 A3008 RMK A01 T01610140  RH  088%=      5-min Rain = 0
KHA2 140805Z 07015KT 16/14 A3008 RMK A01 T01600140  RH  088%=      5-min Rain = 0
KHA2 140806Z 07016KT 16/14 A3008 RMK A01 T01600140  RH  088%=      5-min Rain = 0
KHA2 140807Z 07015KT 16/14 A3008 RMK A01 T01590140  RH  088%=      5-min Rain = 0
KHA2 140808Z 07017KT 16/14 A3008 RMK A01 T01590140  RH  088%=      5-min Rain = 0
KHA2 140809Z 07018KT 16/14 A3008 RMK A01 T01590140  RH  089%=      5-min Rain = 0
KHA2 140810Z 07015KT 16/14 A3008 RMK A01 T01580140  RH  089%=      5-min Rain = 0
KHA2 140811Z 07018KT 16/14 A3007 RMK A01 T01580141  RH  090%=      5-min Rain = 0
KHA2 140812Z 07016KT 16/14 A3007 RMK A01 T01580141  RH  090%=      5-min Rain = 0
KHA2 140813Z 07017KT 16/14 A3007 RMK A01 T01570141  RH  090%=      5-min Rain = 0
KHA2 140814Z 07016KT 16/14 A3007 RMK A01 T01570141  RH  090%=      5-min Rain = 0
KHA2 140815Z 07013KT 16/14 A3007 RMK A01 T01570142  RH  091%=      5-min Rain = 0
KHA2 140816Z 07015KT 16/14 A3007 RMK A01 T01570142  RH  091%=      5-min Rain = 0
KHA2 140817Z 07015KT 16/14 A3007 RMK A01 T01570142  RH  091%=      5-min Rain = 0
KHA2 140818Z 07014KT 16/14 A3007 RMK A01 T01570141  RH  090%=      5-min Rain = 0
KHA2 140819Z 07013KT 16/14 A3007 RMK A01 T01570141  RH  090%=      5-min Rain = 0
KHA2 140820Z 08012KT 16/14 A3007 RMK A01 T01580142  RH  090%=      5-min Rain = 0
KHA2 140821Z 08013KT 16/14 A3007 RMK A01 T01580142  RH  090%=      5-min Rain = 0
KHA2 140822Z 08013KT 16/14 A3006 RMK A01 T01590141  RH  089%=      5-min Rain = 0
KHA2 140823Z 08013KT 16/14 A3006 RMK A01 T01590141  RH  089%=      5-min Rain = 0
KHA2 140824Z 08013KT 16/14 A3006 RMK A01 T01600142  RH  089%=      5-min Rain = 0
KHA2 140825Z 08013KT 16/14 A3006 RMK A01 T01600142  RH  089%=      5-min Rain = 0
KHA2 140826Z 08013KT 16/14 A3006 RMK A01 T01610141  RH  088%=      5-min Rain = 0
KHA2 140827Z 08013KT 16/14 A3006 RMK A01 T01610141  RH  088%=      5-min Rain = 0
KHA2 140828Z 08012KT 16/14 A3006 RMK A01 T01610142  RH  088%=      5-min Rain = 0
KHA2 140829Z 08012KT 16/14 A3006 RMK A01 T01610141  RH  088%=      5-min Rain = 0
KHA2 140830Z 08012KT 16/14 A3006 RMK A01 T01620141  RH  088%=      5-min Rain = 0
KHA2 140831Z 08012KT 16/14 A3006 RMK A01 T01620141  RH  088%=      5-min Rain = 0
KHA2 140832Z 08012KT 16/14 A3006 RMK A01 T01620142  RH  088%=      5-min Rain = 0
KHA2 140833Z 08013KT 16/14 A3006 RMK A01 T01620142  RH  088%=      5-min Rain = 0
KHA2 140834Z 08012KT 16/14 A3006 RMK A01 T01620141  RH  087%=      5-min Rain = 0
KHA2 140835Z 08012KT 16/14 A3005 RMK A01 T01630141  RH  087%=      5-min Rain = 0
KHA2 140836Z 08013KT 16/14 A3005 RMK A01 T01630141  RH  087%=      5-min Rain = 0
KHA2 140837Z 08013KT 16/14 A3005 RMK A01 T01630141  RH  087%=      5-min Rain = 0
KHA2 140838Z 09012KT 16/14 A3005 RMK A01 T01630141  RH  087%=      5-min Rain = 0
KHA2 140839Z 09012KT 16/14 A3005 RMK A01 T01640142  RH  087%=      5-min Rain = 0
KHA2 140840Z 09013KT 16/14 A3005 RMK A01 T01640141  RH  086%=      5-min Rain = 0
KHA2 140841Z 10013KT 16/14 A3004 RMK A01 T01640142  RH  087%=      5-min Rain = 0
KHA2 140842Z 10013KT 16/14 A3004 RMK A01 T01640142  RH  087%=      5-min Rain = 0
KHA2 140843Z 10012KT 16/14 A3004 RMK A01 T01640142  RH  086%=      5-min Rain = 0
KHA2 140844Z 10012KT 17/14 A3004 RMK A01 T01650141  RH  086%=      5-min Rain = 0
KHA2 140845Z 11014KT 17/14 A3003 RMK A01 T01650141  RH  085%=      5-min Rain = 0
KHA2 140846Z 11017KT 17/14 A3002 RMK A01 T01650140  RH  085%=      5-min Rain = 0
KHA2 140847Z 11015KT 17/14 A3002 RMK A01 T01650140  RH  085%=      5-min Rain = 0
KHA2 140848Z 11015KT 17/14 A3002 RMK A01 T01650139  RH  085%=      5-min Rain = 0
KHA2 140849Z 11016KT 17/14 A3001 RMK A01 T01650139  RH  085%=      5-min Rain = 0
KHA2 140850Z 12014KT 17/14 A3002 RMK A01 T01650140  RH  085%=      5-min Rain = 0
KHA2 140851Z 12016KT 17/14 A3002 RMK A01 T01650140  RH  085%=      5-min Rain = 0
KHA2 140852Z 12015KT 17/14 A3001 RMK A01 T01650140  RH  085%=      5-min Rain = 0
KHA2 140853Z 12014G19KT 17/14 A3001 RMK A01 T01650140  RH  085%=      5-min Rain = 0
KHA2 140854Z 12016KT 17/14 A3001 RMK A01 T01650140  RH  085%=      5-min Rain = 0
KHA2 140855Z 12015G20KT 16/14 A3001 RMK A01 T01640140  RH  086%=      5-min Rain = 0
KHA2 140856Z 12016KT 17/14 A30 RMK A01 T01650141  RH  086%=      5-min Rain = 0
KHA2 140857Z 12015KT 16/14 A30 RMK A01 T01640140  RH  086%=      5-min Rain = 0
KHA2 140858Z 12018KT 16/14 A2999 RMK A01 T01640140  RH  085%=      5-min Rain = 0
KHA2 140859Z 12018KT 17/14 A2999 RMK A01 T01660140  RH  085%=      5-min Rain = 0
KHA2 140900Z 12020KT 17/14 A2998 RMK A01 T01670140  RH  084%=      5-min Rain = 0
KHA2 140901Z 12021KT 17/14 A2998 RMK A01 T01680140  RH  084%=      5-min Rain = 0
KHA2 140902Z 12020KT 17/14 A2997 RMK A01 T01680140  RH  083%=      5-min Rain = 0
KHA2 140903Z 12019KT 17/14 A2997 RMK A01 T01680139  RH  083%=      5-min Rain = 0
KHA2 140904Z 12021KT 17/14 A2997 RMK A01 T01690140  RH  083%=      5-min Rain = 0
KHA2 140905Z 12020G26KT 17/14 A2996 RMK A01 T01690139  RH  083%=      5-min Rain = 0
KHA2 140906Z 12020KT 17/14 A2996 RMK A01 T01700139  RH  082%=      5-min Rain = 0
KHA2 140907Z 12020KT 17/14 A2996 RMK A01 T01700139  RH  082%=      5-min Rain = 0
KHA2 140908Z 12019KT 17/14 A2996 RMK A01 T01700139  RH  082%=      5-min Rain = 0
KHA2 140909Z 12020G25KT 17/14 A2996 RMK A01 T01700140  RH  082%=      5-min Rain = 0
KHA2 140910Z 12018KT 17/14 A2996 RMK A01 T01700140  RH  082%=      5-min Rain = 0
KHA2 140911Z 13017G22KT 17/14 A2996 RMK A01 T01700140  RH  083%=      5-min Rain = 0
KHA2 140912Z 13017KT 17/14 A2996 RMK A01 T01700140  RH  082%=      5-min Rain = 0
KHA2 140913Z 12016KT 17/14 A2997 RMK A01 T01700140  RH  082%=      5-min Rain = 0
KHA2 140914Z 12016KT 17/14 A2997 RMK A01 T01700140  RH  082%=      5-min Rain = 0
KHA2 140915Z 12015G20KT 17/14 A2997 RMK A01 T01710141  RH  082%=      5-min Rain = 0
KHA2 140916Z 13014KT 17/14 A2998 RMK A01 T01720141  RH  082%=      5-min Rain = 0
KHA2 140917Z 13012KT 17/14 A2998 RMK A01 T01720141  RH  082%=      5-min Rain = 0
KHA2 140918Z 13011KT 17/14 A2998 RMK A01 T01730141  RH  082%=      5-min Rain = 0
KHA2 140919Z 15012KT 17/14 A2999 RMK A01 T01730141  RH  082%=      5-min Rain = 0
KHA2 140920Z 15010KT 17/14 A2999 RMK A01 T01720141  RH  082%=      5-min Rain = 0
KHA2 140921Z 15009KT 17/14 A2999 RMK A01 T01710141  RH  082%=      5-min Rain = 0
KHA2 140922Z 13007KT 17/14 A2999 RMK A01 T01710141  RH  083%=      5-min Rain = 0
KHA2 140923Z 14007KT 17/14 A2999 RMK A01 T01710141  RH  083%=      5-min Rain = 0
KHA2 140924Z 14009KT 17/14 A2999 RMK A01 T01700141  RH  083%=      5-min Rain = 0
KHA2 140925Z 13010KT 17/14 A2999 RMK A01 T01700141  RH  083%=      5-min Rain = 0
KHA2 140926Z 13011KT 17/14 A2998 RMK A01 T01700141  RH  083%=      5-min Rain = 0
KHA2 140927Z 12010KT 17/14 A2998 RMK A01 T01710142  RH  083%=      5-min Rain = 0
KHA2 140928Z 12009KT 17/14 A2998 RMK A01 T01710141  RH  083%=      5-min Rain = 0
KHA2 140929Z 13012KT 17/14 A2998 RMK A01 T01710142  RH  083%=      5-min Rain = 0
KHA2 140930Z 14010KT 17/14 A2998 RMK A01 T01710142  RH  083%=      5-min Rain = 0
KHA2 140931Z 14010KT 17/14 A2998 RMK A01 T01710142  RH  083%=      5-min Rain = 0
KHA2 140932Z 14010KT 17/14 A2998 RMK A01 T01700142  RH  083%=      5-min Rain = 0
KHA2 140933Z 14009KT 17/14 A2998 RMK A01 T01700142  RH  084%=      5-min Rain = 0
KHA2 140934Z 15012KT 17/14 A2998 RMK A01 T01690142  RH  084%=      5-min Rain = 0
KHA2 140935Z 15011KT 17/14 A2998 RMK A01 T01690142  RH  084%=      5-min Rain = 0
KHA2 140936Z 16011KT 17/14 A2998 RMK A01 T01680142  RH  084%=      5-min Rain = 0
KHA2 140937Z 16010KT 17/14 A2998 RMK A01 T01680142  RH  084%=      5-min Rain = 0
KHA2 140938Z 17011KT 17/14 A2998 RMK A01 T01680142  RH  084%=      5-min Rain = 0
KHA2 140939Z 17009KT 17/14 A2998 RMK A01 T01670141  RH  085%=      5-min Rain = 0
KHA2 140940Z 17011KT 17/14 A2998 RMK A01 T01670141  RH  085%=      5-min Rain = 0
KHA2 140941Z 16011KT 17/14 A2998 RMK A01 T01660141  RH  085%=      5-min Rain = 0
KHA2 140942Z 16013KT 17/14 A2997 RMK A01 T01660141  RH  085%=      5-min Rain = 0
KHA2 140943Z 15013KT 17/14 A2997 RMK A01 T01660141  RH  085%=      5-min Rain = 0
KHA2 140944Z 15014KT 17/14 A2997 RMK A01 T01670141  RH  085%=      5-min Rain = 0
KHA2 140945Z 15015KT 17/14 A2997 RMK A01 T01680141  RH  084%=      5-min Rain = 0
KHA2 140946Z 16015KT 17/14 A2997 RMK A01 T01690142  RH  084%=      5-min Rain = 0
KHA2 140947Z 16016KT 17/14 A2997 RMK A01 T01690142  RH  084%=      5-min Rain = 0
KHA2 140948Z 16016KT 17/14 A2997 RMK A01 T01690141  RH  084%=      5-min Rain = 0
KHA2 140949Z 16016KT 17/14 A2997 RMK A01 T01690141  RH  084%=      5-min Rain = 0
KHA2 140950Z 16014KT 17/14 A2997 RMK A01 T01690142  RH  084%=      5-min Rain = 0
KHA2 140951Z 16013KT 17/14 A2997 RMK A01 T01690141  RH  084%=      5-min Rain = 0
KHA2 140952Z 16015KT 17/14 A2997 RMK A01 T01690141  RH  084%=      5-min Rain = 0
KHA2 140953Z 16014KT 17/14 A2997 RMK A01 T01690142  RH  084%=      5-min Rain = 0
KHA2 140954Z 16014KT 17/14 A2997 RMK A01 T01690142  RH  084%=      5-min Rain = 0
KHA2 140955Z 16015KT 17/14 A2997 RMK A01 T01680141  RH  084%=      5-min Rain = 0
KHA2 140956Z 16013KT 17/14 A2997 RMK A01 T01680141  RH  084%=      5-min Rain = 0
KHA2 140957Z 16012KT 17/14 A2997 RMK A01 T01670141  RH  084%=      5-min Rain = 0
KHA2 140958Z 16013KT 17/14 A2997 RMK A01 T01670141  RH  085%=      5-min Rain = 0
KHA2 140959Z 16013KT 17/14 A2996 RMK A01 T01670141  RH  085%=      5-min Rain = 0
KHA2 141000Z 16014KT 17/14 A2996 RMK A01 T01660141  RH  085%=      5-min Rain = 0
KHA2 141001Z 16013KT 17/14 A2996 RMK A01 T01660141  RH  085%=      5-min Rain = 0
KHA2 141002Z 16014KT 17/14 A2996 RMK A01 T01660141  RH  085%=      5-min Rain = 0
KHA2 141003Z 16013KT 17/14 A2996 RMK A01 T01660141  RH  085%=      5-min Rain = 0
KHA2 141004Z 15013KT 17/14 A2996 RMK A01 T01650141  RH  085%=      5-min Rain = 0
KHA2 141005Z 16013KT 17/14 A2996 RMK A01 T01650141  RH  086%=      5-min Rain = 0
KHA2 141006Z 16013KT 17/14 A2996 RMK A01 T01650141  RH  086%=      5-min Rain = 0
KHA2 141007Z 16011KT 17/14 A2996 RMK A01 T01650141  RH  086%=      5-min Rain = 0
KHA2 141008Z 16013KT 17/14 A2996 RMK A01 T01650141  RH  086%=      5-min Rain = 0
KHA2 141009Z 16015KT 17/14 A2996 RMK A01 T01650142  RH  086%=      5-min Rain = 0
KHA2 141010Z 16013KT 17/14 A2996 RMK A01 T01650142  RH  086%=      5-min Rain = 0
KHA2 141011Z 15013KT 17/14 A2996 RMK A01 T01650142  RH  086%=      5-min Rain = 0
KHA2 141012Z 15014KT 17/14 A2996 RMK A01 T01650142  RH  086%=      5-min Rain = 0
KHA2 141013Z 15012KT 17/14 A2996 RMK A01 T01660142  RH  086%=      5-min Rain = 0
KHA2 141014Z 16012KT 17/14 A2996 RMK A01 T01660142  RH  086%=      5-min Rain = 0
KHA2 141015Z 16010KT 17/14 A2996 RMK A01 T01660142  RH  086%=      5-min Rain = 0
KHA2 141016Z 16012KT 17/14 A2996 RMK A01 T01660142  RH  086%=      5-min Rain = 0
KHA2 141017Z 16013KT 17/14 A2996 RMK A01 T01660142  RH  086%=      5-min Rain = 0
KHA2 141018Z 16013KT 17/14 A2996 RMK A01 T01660142  RH  086%=      5-min Rain = 0
KHA2 141019Z 16012KT 17/14 A2996 RMK A01 T01660143  RH  086%=      5-min Rain = 0
KHA2 141020Z 16014KT 17/14 A2996 RMK A01 T01660143  RH  086%=      5-min Rain = 0
KHA2 141021Z 16014KT 17/14 A2996 RMK A01 T01670143  RH  086%=      5-min Rain = 0
KHA2 141022Z 16014KT 17/14 A2996 RMK A01 T01670143  RH  086%=      5-min Rain = 0
KHA2 141023Z 16016KT 17/14 A2996 RMK A01 T01670143  RH  086%=      5-min Rain = 0
KHA2 141024Z 16017KT 17/14 A2995 RMK A01 T01680144  RH  086%=      5-min Rain = 0
KHA2 141025Z 16016KT 17/14 A2995 RMK A01 T01690144  RH  086%=      5-min Rain = 0
KHA2 141026Z 16016KT 17/14 A2995 RMK A01 T01690144  RH  085%=      5-min Rain = 0
KHA2 141027Z 16015KT 17/15 A2995 RMK A01 T01690145  RH  085%=      5-min Rain = 0
KHA2 141028Z 16014KT 17/15 A2995 RMK A01 T01700145  RH  085%=      5-min Rain = 0
KHA2 141029Z 16014KT 17/15 A2995 RMK A01 T01700145  RH  085%=      5-min Rain = 0
KHA2 141030Z 16014KT 17/15 A2995 RMK A01 T01700145  RH  085%=      5-min Rain = 0
KHA2 141031Z 16015KT 17/15 A2995 RMK A01 T01690145  RH  086%=      5-min Rain = 0
KHA2 141032Z 16013KT 17/15 A2995 RMK A01 T01700145  RH  085%=      5-min Rain = 0
KHA2 141033Z 16014KT 17/15 A2995 RMK A01 T01700145  RH  085%=      5-min Rain = 0
KHA2 141034Z 16016KT 17/15 A2995 RMK A01 T01700146  RH  086%=      5-min Rain = 0
KHA2 141035Z 16016KT 17/15 A2995 RMK A01 T01720147  RH  085%=      5-min Rain = 0
KHA2 141036Z 16014KT 17/15 A2995 RMK A01 T01720147  RH  085%=      5-min Rain = 0
KHA2 141037Z 16015KT 17/15 A2995 RMK A01 T01720147  RH  085%=      5-min Rain = 0
KHA2 141038Z 16014KT 17/15 A2995 RMK A01 T01730148  RH  085%=      5-min Rain = 0
KHA2 141039Z 16014KT 17/15 A2995 RMK A01 T01730148  RH  085%=      5-min Rain = 0
KHA2 141040Z 16014KT 17/15 A2995 RMK A01 T01730148  RH  085%=      5-min Rain = 0
KHA2 141041Z 16014KT 17/15 A2995 RMK A01 T01730148  RH  085%=      5-min Rain = 0
KHA2 141042Z 16014KT 17/15 A2995 RMK A01 T01740148  RH  085%=      5-min Rain = 0
KHA2 141043Z 16012KT 17/15 A2995 RMK A01 T01740148  RH  085%=      5-min Rain = 0
KHA2 141044Z 15013KT 17/15 A2995 RMK A01 T01730148  RH  085%=      5-min Rain = 0
KHA2 141045Z 15012KT 17/15 A2995 RMK A01 T01730148  RH  086%=      5-min Rain = 0
KHA2 141046Z 16012KT 17/15 A2995 RMK A01 T01720149  RH  086%=      5-min Rain = 0
KHA2 141047Z 16013KT 17/15 A2995 RMK A01 T01720149  RH  086%=      5-min Rain = 0
KHA2 141048Z 15013KT 17/15 A2995 RMK A01 T01730151  RH  087%=      5-min Rain = 0
KHA2 141049Z 16012KT 18/15 A2995 RMK A01 T01750152  RH  087%=      5-min Rain = 0
KHA2 141050Z 16013KT 18/15 A2995 RMK A01 T01760153  RH  086%=      5-min Rain = 0
KHA2 141051Z 15012KT 18/15 A2995 RMK A01 T01770154  RH  086%=      5-min Rain = 0
KHA2 141052Z 16015G20KT 18/15 A2995 RMK A01 T01780154  RH  086%=      5-min Rain = 0
KHA2 141053Z 16015KT 18/16 A2995 RMK A01 T01790155  RH  086%=      5-min Rain = 0
KHA2 141054Z 16014KT 18/16 A2995 RMK A01 T01800156  RH  085%=      5-min Rain = 0
KHA2 141055Z 16016KT 18/16 A2995 RMK A01 T01810155  RH  085%=      5-min Rain = 0
KHA2 141056Z 16015KT 18/16 A2995 RMK A01 T01820156  RH  085%=      5-min Rain = 0
KHA2 141057Z 16015KT 18/16 A2995 RMK A01 T01820156  RH  084%=      5-min Rain = 0
KHA2 141058Z 16016KT 18/16 A2995 RMK A01 T01820156  RH  084%=      5-min Rain = 0
KHA2 141059Z 16016KT 18/16 A2995 RMK A01 T01820155  RH  084%=      5-min Rain = 0
KHA2 141100Z 16015KT 18/16 A2995 RMK A01 T01820155  RH  084%=      5-min Rain = 0
KHA2 141101Z 16016KT 18/16 A2995 RMK A01 T01820155  RH  084%=      5-min Rain = 0
KHA2 141102Z 16016KT 18/16 A2995 RMK A01 T01820155  RH  084%=      5-min Rain = 0
KHA2 141103Z 16015KT 18/16 A2995 RMK A01 T01820155  RH  084%=      5-min Rain = 0
KHA2 141104Z 16014KT 18/16 A2995 RMK A01 T01820156  RH  085%=      5-min Rain = 0
KHA2 141105Z 16017KT 18/16 A2995 RMK A01 T01820156  RH  085%=      5-min Rain = 0
KHA2 141106Z 16018KT 18/16 A2995 RMK A01 T01820156  RH  085%=      5-min Rain = 0
KHA2 141107Z 17015KT 18/16 A2995 RMK A01 T01820156  RH  084%=      5-min Rain = 0
KHA2 141108Z 16017KT 18/16 A2995 RMK A01 T01820156  RH  084%=      5-min Rain = 0
KHA2 141109Z 16016KT 18/16 A2995 RMK A01 T01820156  RH  085%=      5-min Rain = 0
KHA2 141110Z 16016KT 18/16 A2995 RMK A01 T01820156  RH  085%=      5-min Rain = 0
KHA2 141111Z 16017KT 18/16 A2995 RMK A01 T01820155  RH  085%=      5-min Rain = 0
KHA2 141112Z 16016KT 18/16 A2995 RMK A01 T01820156  RH  085%=      5-min Rain = 0
KHA2 141113Z 16016KT 18/16 A2995 RMK A01 T01810155  RH  085%=      5-min Rain = 0
KHA2 141114Z 17016KT 18/16 A2995 RMK A01 T01810155  RH  085%=      5-min Rain = 0
KHA2 141115Z 17016KT 18/15 A2995 RMK A01 T01800154  RH  085%=      5-min Rain = 0
KHA2 141116Z 17018KT 18/15 A2995 RMK A01 T01800154  RH  085%=      5-min Rain = 0
KHA2 141117Z 17015KT 18/15 A2995 RMK A01 T01800154  RH  085%=      5-min Rain = 0
KHA2 141118Z 17014KT 18/15 A2995 RMK A01 T01790154  RH  085%=      5-min Rain = 0
KHA2 141119Z 17017KT 18/15 A2995 RMK A01 T01780154  RH  085%=      5-min Rain = 0
KHA2 141120Z 17017KT 18/15 A2995 RMK A01 T01780154  RH  085%=      5-min Rain = 0
KHA2 141121Z 17016KT 18/15 A2995 RMK A01 T01790154  RH  085%=      5-min Rain = 0
KHA2 141122Z 17014KT 18/15 A2995 RMK A01 T01780153  RH  085%=      5-min Rain = 0
KHA2 141123Z 17015KT 18/15 A2995 RMK A01 T01780153  RH  086%=      5-min Rain = 0
KHA2 141124Z 16017KT 18/15 A2995 RMK A01 T01770153  RH  086%=      5-min Rain = 0
KHA2 141125Z 16018KT 18/15 A2995 RMK A01 T01770153  RH  086%=      5-min Rain = 0
KHA2 141126Z 16018KT 18/15 A2995 RMK A01 T01770153  RH  086%=      5-min Rain = 0
KHA2 141127Z 17017KT 18/15 A2995 RMK A01 T01770153  RH  086%=      5-min Rain = 0
KHA2 141128Z 16018KT 18/15 A2995 RMK A01 T01770153  RH  086%=      5-min Rain = 0
KHA2 141129Z 16019KT 18/15 A2995 RMK A01 T01770153  RH  086%=      5-min Rain = 0
KHA2 141130Z 16018KT 18/15 A2995 RMK A01 T01770153  RH  086%=      5-min Rain = 0
KHA2 141131Z 16020KT 18/15 A2994 RMK A01 T01770153  RH  086%=      5-min Rain = 0
KHA2 141132Z 16020KT 18/15 A2994 RMK A01 T01770152  RH  085%=      5-min Rain = 0
KHA2 141133Z 16018KT 18/15 A2995 RMK A01 T01770152  RH  085%=      5-min Rain = 0
KHA2 141134Z 16017KT 18/15 A2995 RMK A01 T01770152  RH  085%=      5-min Rain = 0
KHA2 141135Z 16019KT 18/15 A2995 RMK A01 T01760151  RH  085%=      5-min Rain = 0
KHA2 141136Z 16017KT 18/15 A2995 RMK A01 T01760151  RH  086%=      5-min Rain = 0
KHA2 141137Z 16017KT 18/15 A2995 RMK A01 T01760151  RH  086%=      5-min Rain = 0
KHA2 141138Z 16016KT 18/15 A2995 RMK A01 T01750151  RH  086%=      5-min Rain = 0
KHA2 141139Z 16014KT 17/15 A2995 RMK A01 T01740151  RH  086%=      5-min Rain = 0
KHA2 141140Z 16016KT 17/15 A2995 RMK A01 T01740151  RH  086%=      5-min Rain = 0
KHA2 141141Z 17017KT 17/15 A2995 RMK A01 T01740151  RH  086%=      5-min Rain = 0
KHA2 141142Z 17016KT 17/15 A2995 RMK A01 T01740151  RH  086%=      5-min Rain = 0
KHA2 141143Z 17015KT 18/15 A2995 RMK A01 T01750151  RH  086%=      5-min Rain = 0
KHA2 141144Z 17014KT 17/15 A2995 RMK A01 T01740152  RH  086%=      5-min Rain = 0
KHA2 141145Z 18014KT 17/15 A2995 RMK A01 T01740152  RH  087%=      5-min Rain = 0
KHA2 141146Z 18013KT 17/15 A2995 RMK A01 T01740152  RH  087%=      5-min Rain = 0
KHA2 141147Z 17015KT 17/15 A2995 RMK A01 T01740152  RH  087%=      5-min Rain = 0
KHA2 141148Z 17015KT 17/15 A2995 RMK A01 T01740153  RH  087%=      5-min Rain = 0
KHA2 141149Z 17013KT 17/15 A2995 RMK A01 T01740153  RH  087%=      5-min Rain = 0
KHA2 141150Z 17014KT 17/15 A2995 RMK A01 T01740153  RH  088%=      5-min Rain = 0
KHA2 141151Z 17015KT 17/15 A2995 RMK A01 T01740154  RH  088%=      5-min Rain = 0
KHA2 141152Z 17016KT 18/15 A2995 RMK A01 T01750154  RH  088%=      5-min Rain = 0
KHA2 141153Z 17018KT 18/15 A2995 RMK A01 T01750154  RH  088%=      5-min Rain = 0
KHA2 141154Z 17016G23KT 18/16 A2995 RMK A01 T01760155  RH  087%=      5-min Rain = 0
KHA2 141155Z 17016KT 18/16 A2995 RMK A01 T01760155  RH  087%=      5-min Rain = 0
KHA2 141156Z 17018KT 18/16 A2995 RMK A01 T01760155  RH  087%=      5-min Rain = 0
KHA2 141157Z 17018G23KT 18/16 A2995 RMK A01 T01770155  RH  087%=      5-min Rain = 0
KHA2 141158Z 17019KT 18/16 A2994 RMK A01 T01770156  RH  087%=      5-min Rain = 0
KHA2 141159Z 17018KT 18/16 A2994 RMK A01 T01780156  RH  087%=      5-min Rain = 0
KHA2 141200Z 17019G24KT 18/16 A2994 RMK A01 T01780157  RH  087%=      5-min Rain = 0
KHA2 141201Z 17019KT 18/16 A2994 RMK A01 T01780157  RH  087%=      5-min Rain = 0
KHA2 141202Z 17016KT 18/16 A2994 RMK A01 T01780157  RH  087%=      5-min Rain = 0
KHA2 141203Z 17018KT 18/16 A2994 RMK A01 T01780157  RH  088%=      5-min Rain = 0
KHA2 141204Z 17017KT 18/16 A2994 RMK A01 T01780158  RH  088%=      5-min Rain = 0
KHA2 141205Z 17017KT 18/16 A2994 RMK A01 T01780158  RH  088%=      5-min Rain = 0
KHA2 141206Z 17017KT 18/16 A2994 RMK A01 T01780158  RH  088%=      5-min Rain = 0
KHA2 141207Z 17014KT 18/16 A2994 RMK A01 T01780158  RH  088%=      5-min Rain = 0
KHA2 141208Z 17016KT 18/16 A2994 RMK A01 T01780158  RH  088%=      5-min Rain = 0
KHA2 141209Z 17018KT 18/16 A2994 RMK A01 T01790159  RH  088%=      5-min Rain = 0
KHA2 141210Z 17020KT 18/16 A2994 RMK A01 T01800160  RH  088%=      5-min Rain = 0
KHA2 141211Z 18016KT 18/16 A2994 RMK A01 T01810161  RH  088%=      5-min Rain = 0
KHA2 141212Z 17018G23KT 18/16 A2994 RMK A01 T01810161  RH  088%=      5-min Rain = 0
KHA2 141213Z 18017G22KT 18/16 A2994 RMK A01 T01820161  RH  088%=      5-min Rain = 0
KHA2 141214Z 18018G26KT 18/16 A2994 RMK A01 T01820161  RH  087%=      5-min Rain = 0
KHA2 141215Z 18018G25KT 18/16 A2994 RMK A01 T01830162  RH  088%=      5-min Rain = 0
KHA2 141216Z 18018G23KT 18/16 A2995 RMK A01 T01840162  RH  087%=      5-min Rain = 0
KHA2 141217Z 19017G23KT 18/16 A2995 RMK A01 T01840162  RH  087%=      5-min Rain = 0
KHA2 141218Z 18016KT 18/16 A2995 RMK A01 T01840162  RH  087%=      5-min Rain = 0
KHA2 141219Z 19018KT 18/16 A2995 RMK A01 T01840162  RH  087%=      5-min Rain = 0
KHA2 141220Z 20015KT 18/16 A2995 RMK A01 T01840162  RH  087%=      5-min Rain = 0
KHA2 141221Z 20013KT 18/16 A2995 RMK A01 T01840162  RH  087%=      5-min Rain = 0
KHA2 141222Z 20013KT 18/16 A2995 RMK A01 T01840162  RH  087%=      5-min Rain = 0
KHA2 141223Z 19015KT 18/16 A2995 RMK A01 T01830162  RH  087%=      5-min Rain = 0
KHA2 141224Z 19015KT 18/16 A2995 RMK A01 T01840162  RH  087%=      5-min Rain = 0
KHA2 141225Z 19017KT 18/16 A2995 RMK A01 T01830162  RH  087%=      5-min Rain = 0
KHA2 141226Z 19014KT 18/16 A2995 RMK A01 T01840162  RH  087%=      5-min Rain = 0
KHA2 141227Z 18016KT 18/16 A2995 RMK A01 T01840162  RH  087%=      5-min Rain = 0
KHA2 141228Z 18016KT 18/16 A2994 RMK A01 T01840162  RH  087%=      5-min Rain = 0
KHA2 141229Z 18015KT 18/16 A2994 RMK A01 T01840162  RH  087%=      5-min Rain = 0
KHA2 141230Z 18017KT 18/16 A2994 RMK A01 T01830162  RH  088%=      5-min Rain = 0
KHA2 141231Z 18015KT 18/16 A2994 RMK A01 T01830163  RH  088%=      5-min Rain = 0
KHA2 141232Z 18015KT 18/16 A2994 RMK A01 T01830162  RH  088%=      5-min Rain = 0
KHA2 141233Z 18015KT 18/16 A2994 RMK A01 T01820162  RH  088%=      5-min Rain = 0
KHA2 141234Z 18017KT 18/16 A2994 RMK A01 T01820162  RH  088%=      5-min Rain = 0
KHA2 141235Z 18018KT 18/16 A2994 RMK A01 T01820162  RH  088%=      5-min Rain = 0
KHA2 141236Z 18017KT 18/16 A2994 RMK A01 T01820162  RH  088%=      5-min Rain = 0
KHA2 141237Z 18016G21KT 18/16 A2994 RMK A01 T01820163  RH  088%=      5-min Rain = 0
KHA2 141238Z 18016KT 18/16 A2994 RMK A01 T01820163  RH  088%=      5-min Rain = 0
KHA2 141239Z 18018KT 18/16 A2994 RMK A01 T01820163  RH  089%=      5-min Rain = 0
KHA2 141240Z 18018G23KT 18/16 A2994 RMK A01 T01820163  RH  089%=      5-min Rain = 0
KHA2 141241Z 17017KT 18/16 A2994 RMK A01 T01820163  RH  089%=      5-min Rain = 0
KHA2 141242Z 17019KT 18/16 A2994 RMK A01 T01820163  RH  089%=      5-min Rain = 0
KHA2 141243Z 17015KT 18/16 A2994 RMK A01 T01820163  RH  089%=      5-min Rain = 0
KHA2 141244Z 17018KT 18/16 A2994 RMK A01 T01820163  RH  089%=      5-min Rain = 0
KHA2 141245Z 17018KT 18/16 A2994 RMK A01 T01820164  RH  089%=      5-min Rain = 0
KHA2 141246Z 17016KT 18/16 A2994 RMK A01 T01820164  RH  089%=      5-min Rain = 0
KHA2 141247Z 18017KT 18/16 A2994 RMK A01 T01830164  RH  089%=      5-min Rain = 0
KHA2 141248Z 17017KT 18/16 A2994 RMK A01 T01830164  RH  089%=      5-min Rain = 0
KHA2 141249Z 17017KT 18/17 A2994 RMK A01 T01840165  RH  089%=      5-min Rain = 0
KHA2 141250Z 18016KT 18/17 A2994 RMK A01 T01840165  RH  089%=      5-min Rain = 0
KHA2 141251Z 18016KT 18/17 A2994 RMK A01 T01840165  RH  089%=      5-min Rain = 0
KHA2 141252Z 18018KT 19/17 A2994 RMK A01 T01850165  RH  088%=      5-min Rain = 0
KHA2 141253Z 18016KT 19/17 A2994 RMK A01 T01850166  RH  088%=      5-min Rain = 0
KHA2 141254Z 18016KT 19/17 A2994 RMK A01 T01860166  RH  088%=      5-min Rain = 0
KHA2 141255Z 18017KT 19/17 A2994 RMK A01 T01860166  RH  088%=      5-min Rain = 0
KHA2 141256Z 18017KT 19/17 A2994 RMK A01 T01870167  RH  088%=      5-min Rain = 0
KHA2 141257Z 18016KT 19/17 A2994 RMK A01 T01880167  RH  088%=      5-min Rain = 0
KHA2 141258Z 18016KT 19/17 A2994 RMK A01 T01880167  RH  088%=      5-min Rain = 0
KHA2 141259Z 19015KT 19/17 A2994 RMK A01 T01890168  RH  087%=      5-min Rain = 0
KHA2 141300Z 18017KT 19/17 A2994 RMK A01 T01900168  RH  087%=      5-min Rain = 0
KHA2 141301Z 19019KT 19/17 A2994 RMK A01 T01910168  RH  087%=      5-min Rain = 0
KHA2 141302Z 19016G21KT 19/17 A2994 RMK A01 T01910168  RH  087%=      5-min Rain = 0
KHA2 141303Z 19014KT 19/17 A2995 RMK A01 T01930169  RH  086%=      5-min Rain = 0
KHA2 141304Z 19015KT 19/17 A2994 RMK A01 T01940170  RH  086%=      5-min Rain = 0
KHA2 141305Z 18015KT 20/17 A2995 RMK A01 T01950170  RH  085%=      5-min Rain = 0
KHA2 141306Z 19017G22KT 20/17 A2995 RMK A01 T01960170  RH  085%=      5-min Rain = 0
KHA2 141307Z 18017KT 20/17 A2994 RMK A01 T01970170  RH  085%=      5-min Rain = 0
KHA2 141308Z 19018KT 20/17 A2995 RMK A01 T01980170  RH  084%=      5-min Rain = 0
KHA2 141309Z 19018KT 20/17 A2994 RMK A01 T01980170  RH  084%=      5-min Rain = 0
KHA2 141310Z 18016KT 20/17 A2995 RMK A01 T01980171  RH  084%=      5-min Rain = 0
KHA2 141311Z 18016G21KT 20/17 A2995 RMK A01 T01990171  RH  084%=      5-min Rain = 0
KHA2 141312Z 19019KT 20/17 A2995 RMK A01 T02000171  RH  084%=      5-min Rain = 0
KHA2 141313Z 19021KT 20/17 A2995 RMK A01 T01990170  RH  083%=      5-min Rain = 0
KHA2 141314Z 19022KT 20/17 A2995 RMK A01 T01990170  RH  083%=      5-min Rain = 0
KHA2 141315Z 18021KT 20/17 A2995 RMK A01 T02000169  RH  083%=      5-min Rain = 0
KHA2 141316Z 19018KT 20/17 A2995 RMK A01 T02000170  RH  083%=      5-min Rain = 0
KHA2 141317Z 19024KT 20/17 A2994 RMK A01 T02000169  RH  083%=      5-min Rain = 0
KHA2 141318Z 19021KT 20/17 A2995 RMK A01 T02000169  RH  082%=      5-min Rain = 0
KHA2 141319Z 19022KT 20/17 A2995 RMK A01 T02010169  RH  082%=      5-min Rain = 0
KHA2 141320Z 19021KT 20/17 A2995 RMK A01 T02010169  RH  082%=      5-min Rain = 0
KHA2 141321Z 18020KT 20/17 A2995 RMK A01 T02020169  RH  082%=      5-min Rain = 0
KHA2 141322Z 19020KT 20/17 A2995 RMK A01 T02020170  RH  082%=      5-min Rain = 0
KHA2 141323Z 19020G25KT 20/17 A2995 RMK A01 T02030170  RH  081%=      5-min Rain = 0
KHA2 141324Z 19021KT 20/17 A2995 RMK A01 T02030169  RH  081%=      5-min Rain = 0
KHA2 141325Z 18021KT 20/17 A2995 RMK A01 T02030169  RH  081%=      5-min Rain = 0
KHA2 141326Z 19018G23KT 20/17 A2995 RMK A01 T02040169  RH  081%=      5-min Rain = 0
KHA2 141327Z 19021G26KT 20/17 A2995 RMK A01 T02040169  RH  080%=      5-min Rain = 0
KHA2 141328Z 19019G26KT 21/17 A2995 RMK A01 T02050168  RH  079%=      5-min Rain = 0
KHA2 141329Z 19019KT 21/17 A2995 RMK A01 T02060169  RH  079%=      5-min Rain = 0
KHA2 141330Z 19018KT 21/17 A2995 RMK A01 T02060169  RH  079%=      5-min Rain = 0
KHA2 141331Z 19019KT 21/17 A2995 RMK A01 T02060169  RH  079%=      5-min Rain = 0
KHA2 141332Z 19019KT 21/17 A2995 RMK A01 T02070168  RH  078%=      5-min Rain = 0
KHA2 141333Z 19022KT 21/17 A2995 RMK A01 T02070168  RH  078%=      5-min Rain = 0
KHA2 141334Z 19018KT 21/17 A2995 RMK A01 T02070168  RH  078%=      5-min Rain = 0
KHA2 141335Z 19020KT 21/17 A2995 RMK A01 T02080168  RH  078%=      5-min Rain = 0
KHA2 141336Z 19019KT 21/17 A2995 RMK A01 T02080168  RH  078%=      5-min Rain = 0
KHA2 141337Z 19017G22KT 21/17 A2995 RMK A01 T02080168  RH  078%=      5-min Rain = 0
KHA2 141338Z 19017KT 21/17 A2995 RMK A01 T02090169  RH  078%=      5-min Rain = 0
KHA2 141339Z 18019KT 21/17 A2995 RMK A01 T02090169  RH  078%=      5-min Rain = 0
KHA2 141340Z 19018KT 21/17 A2995 RMK A01 T02100169  RH  077%=      5-min Rain = 0
KHA2 141341Z 19021KT 21/17 A2995 RMK A01 T02100168  RH  077%=      5-min Rain = 0
KHA2 141342Z 19021KT 21/17 A2995 RMK A01 T02100168  RH  077%=      5-min Rain = 0
KHA2 141343Z 19020KT 21/17 A2995 RMK A01 T02100168  RH  077%=      5-min Rain = 0
KHA2 141344Z 19015G20KT 21/17 A2995 RMK A01 T02110168  RH  077%=      5-min Rain = 0
KHA2 141345Z 19019KT 21/17 A2995 RMK A01 T02110169  RH  077%=      5-min Rain = 0
KHA2 141346Z 19014KT 21/17 A2995 RMK A01 T02110168  RH  076%=      5-min Rain = 0
KHA2 141347Z 19015KT 21/17 A2995 RMK A01 T02120169  RH  076%=      5-min Rain = 0
KHA2 141348Z 19013KT 21/17 A2995 RMK A01 T02130169  RH  076%=      5-min Rain = 0
KHA2 141349Z 19017G23KT 21/17 A2995 RMK A01 T02140169  RH  075%=      5-min Rain = 0
KHA2 141350Z 19016KT 21/17 A2995 RMK A01 T02140167  RH  075%=      5-min Rain = 0
KHA2 141351Z 19016KT 22/17 A2995 RMK A01 T02150168  RH  074%=      5-min Rain = 0
KHA2 141352Z 19017KT 22/17 A2995 RMK A01 T02150168  RH  074%=      5-min Rain = 0
KHA2 141353Z 19016KT 22/17 A2995 RMK A01 T02160168  RH  074%=      5-min Rain = 0
KHA2 141354Z 19017KT 22/17 A2995 RMK A01 T02160168  RH  074%=      5-min Rain = 0
KHA2 141355Z 19020KT 22/17 A2995 RMK A01 T02160167  RH  073%=      5-min Rain = 0
KHA2 141356Z 20022KT 22/17 A2995 RMK A01 T02160166  RH  073%=      5-min Rain = 0
KHA2 141357Z 19017G22KT 22/17 A2995 RMK A01 T02150166  RH  074%=      5-min Rain = 0
KHA2 141358Z 19016G21KT 22/17 A2995 RMK A01 T02150167  RH  074%=      5-min Rain = 0
KHA2 141359Z 20017KT 22/17 A2995 RMK A01 T02150166  RH  074%=      5-min Rain = 0
KHA2 141400Z 19019KT 22/17 A2995 RMK A01 T02160166  RH  073%=      5-min Rain = 0
KHA2 141401Z 19014KT 22/17 A2995 RMK A01 T02160166  RH  073%=      5-min Rain = 0
KHA2 141402Z 20018KT 22/17 A2995 RMK A01 T02170166  RH  073%=      5-min Rain = 0
KHA2 141403Z 20017KT 22/17 A2995 RMK A01 T02180166  RH  072%=      5-min Rain = 0
KHA2 141404Z 19016KT 22/17 A2995 RMK A01 T02180165  RH  072%=      5-min Rain = 0
KHA2 141405Z 19015G20KT 22/17 A2995 RMK A01 T02190165  RH  072%=      5-min Rain = 0
KHA2 141406Z 20018KT 22/17 A2995 RMK A01 T02190165  RH  071%=      5-min Rain = 0
KHA2 141407Z 19016G21KT 22/17 A2995 RMK A01 T02200166  RH  071%=      5-min Rain = 0
KHA2 141408Z 19020KT 22/17 A2995 RMK A01 T02220166  RH  071%=      5-min Rain = 0
KHA2 141409Z 19020KT 22/17 A2995 RMK A01 T02230165  RH  070%=      5-min Rain = 0
KHA2 141410Z 20019KT 22/17 A2995 RMK A01 T02240166  RH  070%=      5-min Rain = 0
KHA2 141411Z 20015KT 23/17 A2995 RMK A01 T02250166  RH  069%=      5-min Rain = 0
KHA2 141412Z 20018KT 23/17 A2995 RMK A01 T02280168  RH  069%=      5-min Rain = 0
KHA2 141413Z 20018KT 23/17 A2995 RMK A01 T02280166  RH  068%=      5-min Rain = 0
KHA2 141414Z 20020KT 23/16 A2995 RMK A01 T02280164  RH  067%=      5-min Rain = 0
KHA2 141415Z 20019KT 23/16 A2995 RMK A01 T02270163  RH  067%=      5-min Rain = 0
KHA2 141416Z 20020KT 23/17 A2995 RMK A01 T02270165  RH  068%=      5-min Rain = 0
KHA2 141417Z 20021KT 23/16 A2995 RMK A01 T02270163  RH  067%=      5-min Rain = 0
KHA2 141418Z 20020KT 23/16 A2995 RMK A01 T02270163  RH  067%=      5-min Rain = 0
KHA2 141419Z 20019KT 23/16 A2995 RMK A01 T02270163  RH  067%=      5-min Rain = 0
KHA2 141420Z 20016G21KT 23/17 A2995 RMK A01 T02270165  RH  068%=      5-min Rain = 0
KHA2 141421Z 19018KT 23/17 A2995 RMK A01 T02310166  RH  067%=      5-min Rain = 0
KHA2 141422Z 20019KT 23/16 A2995 RMK A01 T02320164  RH  066%=      5-min Rain = 0
KHA2 141423Z 20021KT 23/16 A2995 RMK A01 T02310162  RH  065%=      5-min Rain = 0
KHA2 141424Z 20020KT 23/16 A2995 RMK A01 T02300162  RH  066%=      5-min Rain = 0
KHA2 141425Z 20017G23KT 23/16 A2995 RMK A01 T02300163  RH  066%=      5-min Rain = 0
KHA2 141426Z 21019KT 23/16 A2994 RMK A01 T02320163  RH  065%=      5-min Rain = 0
KHA2 141427Z 21018KT 23/16 A2994 RMK A01 T02330162  RH  064%=      5-min Rain = 0
KHA2 141428Z 20019KT 23/16 A2994 RMK A01 T02340162  RH  064%=      5-min Rain = 0
KHA2 141429Z 20018KT 24/16 A2994 RMK A01 T02350162  RH  063%=      5-min Rain = 0
KHA2 141430Z 20016KT 24/16 A2994 RMK A01 T02350162  RH  063%=      5-min Rain = 0
KHA2 141431Z 20016KT 24/16 A2994 RMK A01 T02350161  RH  063%=      5-min Rain = 0
KHA2 141432Z 21015KT 24/16 A2994 RMK A01 T02350162  RH  063%=      5-min Rain = 0
KHA2 141433Z 20017KT 24/16 A2994 RMK A01 T02350162  RH  063%=      5-min Rain = 0
KHA2 141434Z 20018KT 24/16 A2994 RMK A01 T02360163  RH  063%=      5-min Rain = 0
KHA2 141435Z 20020G25KT 24/16 A2994 RMK A01 T02370163  RH  063%=      5-min Rain = 0
KHA2 141436Z 21022KT 24/16 A2994 RMK A01 T02390161  RH  062%=      5-min Rain = 0
KHA2 141437Z 20023G28KT 24/16 A2994 RMK A01 T02390158  RH  061%=      5-min Rain = 0
KHA2 141438Z 20021KT 24/16 A2994 RMK A01 T02390159  RH  061%=      5-min Rain = 0
KHA2 141439Z 20023KT 24/16 A2994 RMK A01 T02390159  RH  061%=      5-min Rain = 0
KHA2 141440Z 20022KT 24/16 A2994 RMK A01 T02370158  RH  061%=      5-min Rain = 0
KHA2 141441Z 20022KT 24/16 A2994 RMK A01 T02370159  RH  061%=      5-min Rain = 0
KHA2 141442Z 20019G24KT 24/16 A2994 RMK A01 T02380160  RH  062%=      5-min Rain = 0
KHA2 141443Z 20022KT 24/16 A2994 RMK A01 T02400160  RH  061%=      5-min Rain = 0
KHA2 141444Z 20022KT 24/16 A2994 RMK A01 T02400160  RH  061%=      5-min Rain = 0
KHA2 141445Z 20021KT 24/16 A2994 RMK A01 T02400160  RH  061%=      5-min Rain = 0
KHA2 141446Z 20020KT 24/16 A2994 RMK A01 T02400158  RH  060%=      5-min Rain = 0
KHA2 141447Z 20019KT 24/16 A2994 RMK A01 T02410159  RH  060%=      5-min Rain = 0
KHA2 141448Z 21021KT 24/16 A2994 RMK A01 T02430160  RH  060%=      5-min Rain = 0
KHA2 141449Z 21016KT 25/16 A2994 RMK A01 T02450162  RH  060%=      5-min Rain = 0
KHA2 141450Z 21020G26KT 25/16 A2994 RMK A01 T02490161  RH  058%=      5-min Rain = 0
KHA2 141451Z 20022KT 25/16 A2994 RMK A01 T02490156  RH  056%=      5-min Rain = 0
KHA2 141452Z 21023KT 25/15 A2994 RMK A01 T02490154  RH  055%=      5-min Rain = 0
KHA2 141453Z 21021G27KT 25/15 A2994 RMK A01 T02490153  RH  055%=      5-min Rain = 0
KHA2 141454Z 21021KT 25/15 A2993 RMK A01 T02500153  RH  055%=      5-min Rain = 0
KHA2 141455Z 20019G25KT 25/15 A2993 RMK A01 T02490153  RH  055%=      5-min Rain = 0
KHA2 141456Z 21021KT 25/15 A2993 RMK A01 T02490153  RH  055%=      5-min Rain = 0
KHA2 141457Z 21021KT 25/15 A2993 RMK A01 T02480154  RH  056%=      5-min Rain = 0
KHA2 141458Z 21022G27KT 25/15 A2993 RMK A01 T02480152  RH  055%=      5-min Rain = 0
KHA2 141459Z 21019KT 25/15 A2993 RMK A01 T02490152  RH  055%=      5-min Rain = 0
KHA2 141500Z 21018G23KT 25/16 A2993 RMK A01 T02500155  RH  056%=      5-min Rain = 0
KHA2 141501Z 21018G23KT 25/16 A2993 RMK A01 T02520155  RH  055%=      5-min Rain = 0
KHA2 141502Z 21021KT 25/15 A2993 RMK A01 T02540153  RH  054%=      5-min Rain = 0
KHA2 141503Z 21017KT 25/16 A2993 RMK A01 T02540155  RH  054%=      5-min Rain = 0
KHA2 141504Z 22017KT 26/16 A2993 RMK A01 T02560157  RH  054%=      5-min Rain = 0
KHA2 141505Z 22017KT 26/16 A2993 RMK A01 T02580155  RH  053%=      5-min Rain = 0
KHA2 141506Z 21021G26KT 26/15 A2993 RMK A01 T02590154  RH  052%=      5-min Rain = 0
KHA2 141507Z 21020G25KT 26/15 A2993 RMK A01 T02580152  RH  052%=      5-min Rain = 0
KHA2 141508Z 21020KT 26/15 A2993 RMK A01 T02550152  RH  053%=      5-min Rain = 0
KHA2 141509Z 20019G24KT 25/15 A2993 RMK A01 T02540152  RH  053%=      5-min Rain = 0
KHA2 141510Z 21020KT 25/15 A2993 RMK A01 T02540151  RH  053%=      5-min Rain = 0
KHA2 141511Z 22016KT 25/15 A2993 RMK A01 T02540149  RH  052%=      5-min Rain = 0
KHA2 141512Z 22019KT 26/15 A2993 RMK A01 T02550150  RH  052%=      5-min Rain = 0
KHA2 141513Z 22018KT 26/15 A2993 RMK A01 T02560148  RH  051%=      5-min Rain = 0
KHA2 141514Z 21018G24KT 26/15 A2993 RMK A01 T02580148  RH  051%=      5-min Rain = 0
KHA2 141515Z 22018KT 26/15 A2993 RMK A01 T02600147  RH  050%=      5-min Rain = 0
KHA2 141516Z 22019KT 26/15 A2993 RMK A01 T02620148  RH  049%=      5-min Rain = 0
KHA2 141517Z 21018G23KT 26/15 A2993 RMK A01 T02620147  RH  049%=      5-min Rain = 0
KHA2 141518Z 21022KT 26/15 A2992 RMK A01 T02610146  RH  049%=      5-min Rain = 0
KHA2 141519Z 22020KT 26/15 A2993 RMK A01 T02590145  RH  049%=      5-min Rain = 0
KHA2 141520Z 22019G25KT 26/15 A2993 RMK A01 T02590147  RH  050%=      5-min Rain = 0
KHA2 141521Z 22023KT 26/14 A2993 RMK A01 T02600143  RH  048%=      5-min Rain = 0
KHA2 141522Z 22018KT 26/14 A2993 RMK A01 T02580143  RH  049%=      5-min Rain = 0
KHA2 141523Z 23019KT 26/14 A2993 RMK A01 T02580144  RH  049%=      5-min Rain = 0
KHA2 141524Z 22016KT 26/15 A2993 RMK A01 T02580145  RH  050%=      5-min Rain = 0
KHA2 141525Z 22017G23KT 26/14 A2993 RMK A01 T02580143  RH  049%=      5-min Rain = 0
KHA2 141526Z 22016KT 26/14 A2993 RMK A01 T02590143  RH  049%=      5-min Rain = 0
KHA2 141527Z 22014KT 26/15 A2993 RMK A01 T02600145  RH  049%=      5-min Rain = 0
KHA2 141528Z 23018G24KT 26/15 A2992 RMK A01 T02610145  RH  049%=      5-min Rain = 0
KHA2 141529Z 22017KT 26/14 A2992 RMK A01 T02610144  RH  048%=      5-min Rain = 0
KHA2 141530Z 22019KT 26/14 A2992 RMK A01 T02610144  RH  048%=      5-min Rain = 0
KHA2 141531Z 22016G21KT 26/14 A2992 RMK A01 T02600141  RH  048%=      5-min Rain = 0
KHA2 141532Z 22015KT 26/14 A2992 RMK A01 T02600143  RH  049%=      5-min Rain = 0
KHA2 141533Z 22018G25KT 26/14 A2992 RMK A01 T02610144  RH  049%=      5-min Rain = 0
KHA2 141534Z 22021KT 26/14 A2992 RMK A01 T02600141  RH  048%=      5-min Rain = 0
KHA2 141535Z 22019G24KT 26/14 A2992 RMK A01 T02590142  RH  048%=      5-min Rain = 0
KHA2 141536Z 23019KT 26/14 A2992 RMK A01 T02580142  RH  049%=      5-min Rain = 0
KHA2 141537Z 22019KT 26/14 A2992 RMK A01 T02580142  RH  049%=      5-min Rain = 0
KHA2 141538Z 22016G21KT 26/14 A2992 RMK A01 T02580144  RH  049%=      5-min Rain = 0
KHA2 141539Z 21019KT 26/14 A2992 RMK A01 T02600144  RH  049%=      5-min Rain = 0
KHA2 141540Z 22019KT 26/14 A2992 RMK A01 T02610141  RH  048%=      5-min Rain = 0
KHA2 141541Z 23019G24KT 26/14 A2992 RMK A01 T02610141  RH  047%=      5-min Rain = 0
KHA2 141542Z 22017G22KT 26/14 A2992 RMK A01 T02620142  RH  048%=      5-min Rain = 0
KHA2 141543Z 22020G25KT 26/14 A2991 RMK A01 T02640142  RH  047%=      5-min Rain = 0
KHA2 141544Z 22021G26KT 26/14 A2991 RMK A01 T02640141  RH  047%=      5-min Rain = 0
KHA2 141545Z 23022G27KT 27/14 A2991 RMK A01 T02650141  RH  046%=      5-min Rain = 0
KHA2 141546Z 22021KT 27/14 A2991 RMK A01 T02660141  RH  046%=      5-min Rain = 0
KHA2 141547Z 22021G26KT 27/14 A2991 RMK A01 T02670141  RH  046%=      5-min Rain = 0
KHA2 141548Z 23022G27KT 27/14 A2991 RMK A01 T02690141  RH  045%=      5-min Rain = 0
KHA2 141549Z 23019G25KT 27/14 A2991 RMK A01 T02710140  RH  045%=      5-min Rain = 0
KHA2 141550Z 23018G23KT 27/14 A2991 RMK A01 T02720141  RH  044%=      5-min Rain = 0
KHA2 141551Z 23016KT 27/14 A2991 RMK A01 T02730142  RH  044%=      5-min Rain = 0
KHA2 141552Z 23021G27KT 28/14 A2991 RMK A01 T02750141  RH  044%=      5-min Rain = 0
KHA2 141553Z 23019G26KT 28/14 A2991 RMK A01 T02750138  RH  043%=      5-min Rain = 0
KHA2 141554Z 23018KT 28/14 A2991 RMK A01 T02770141  RH  043%=      5-min Rain = 0
KHA2 141555Z 23019G24KT 28/14 A2991 RMK A01 T02790141  RH  043%=      5-min Rain = 0
KHA2 141556Z 23021KT 28/14 A2991 RMK A01 T02810139  RH  042%=      5-min Rain = 0
KHA2 141557Z 22021G26KT 28/14 A2991 RMK A01 T02790138  RH  042%=      5-min Rain = 0
KHA2 141558Z 23020KT 28/14 A2991 RMK A01 T02800139  RH  042%=      5-min Rain = 0
KHA2 141559Z 22019G26KT 28/14 A2991 RMK A01 T02820141  RH  042%=      5-min Rain = 0
KHA2 141600Z 23024KT 29/14 A2991 RMK A01 T02850137  RH  040%=      5-min Rain = 0
KHA2 141601Z 23023KT 28/14 A2991 RMK A01 T02840135  RH  040%=      5-min Rain = 0
KHA2 141602Z 23022KT 28/13 A2991 RMK A01 T02830134  RH  040%=      5-min Rain = 0
KHA2 141603Z 23023KT 28/13 A2991 RMK A01 T02830134  RH  040%=      5-min Rain = 0
KHA2 141604Z 23021G26KT 28/13 A2991 RMK A01 T02820134  RH  040%=      5-min Rain = 0
KHA2 141605Z 24025KT 28/13 A2991 RMK A01 T02830133  RH  040%=      5-min Rain = 0
KHA2 141606Z 24020KT 28/13 A2991 RMK A01 T02830131  RH  039%=      5-min Rain = 0
KHA2 141607Z 23019KT 28/13 A2991 RMK A01 T02820133  RH  040%=      5-min Rain = 0
KHA2 141608Z 23022G28KT 28/14 A2991 RMK A01 T02820135  RH  040%=      5-min Rain = 0
KHA2 141609Z 23020KT 28/14 A2991 RMK A01 T02830135  RH  040%=      5-min Rain = 0
KHA2 141610Z 23017KT 28/14 A2991 RMK A01 T02840135  RH  040%=      5-min Rain = 0
KHA2 141611Z 22022KT 29/14 A2991 RMK A01 T02850138  RH  040%=      5-min Rain = 0
KHA2 141612Z 23022KT 29/14 A2991 RMK A01 T02870136  RH  040%=      5-min Rain = 0
KHA2 141613Z 23021KT 29/14 A2991 RMK A01 T02870136  RH  040%=      5-min Rain = 0
KHA2 141614Z 23020KT 29/14 A2991 RMK A01 T02860136  RH  040%=      5-min Rain = 0
KHA2 141615Z 23018KT 29/14 A2991 RMK A01 T02860137  RH  040%=      5-min Rain = 0
KHA2 141616Z 23016KT 29/14 A2991 RMK A01 T02890141  RH  040%=      5-min Rain = 0
KHA2 141617Z 23019KT 29/14 A299 RMK A01 T02920140  RH  039%=      5-min Rain = 0
KHA2 141618Z 23019KT 29/14 A299 RMK A01 T02900138  RH  039%=      5-min Rain = 0
KHA2 141619Z 23017KT 29/14 A299 RMK A01 T02900139  RH  039%=      5-min Rain = 0
KHA2 141620Z 23020G25KT 29/14 A299 RMK A01 T02900138  RH  039%=      5-min Rain = 0
KHA2 141621Z 24017KT 29/14 A299 RMK A01 T02880138  RH  040%=      5-min Rain = 0
KHA2 141622Z 25020KT 29/14 A299 RMK A01 T02900137  RH  039%=      5-min Rain = 0
KHA2 141623Z 25021G26KT 29/14 A299 RMK A01 T02910137  RH  039%=      5-min Rain = 0
KHA2 141624Z 24020G26KT 29/13 A299 RMK A01 T02910131  RH  037%=      5-min Rain = 0
KHA2 141625Z 24018G23KT 29/13 A299 RMK A01 T02910133  RH  038%=      5-min Rain = 0
KHA2 141626Z 24019G25KT 29/14 A299 RMK A01 T02930136  RH  038%=      5-min Rain = 0
KHA2 141627Z 24022KT 29/13 A299 RMK A01 T02940132  RH  037%=      5-min Rain = 0
KHA2 141628Z 24023KT 29/13 A299 RMK A01 T02930128  RH  036%=      5-min Rain = 0
KHA2 141629Z 24021KT 29/13 A299 RMK A01 T02920129  RH  037%=      5-min Rain = 0
KHA2 141630Z 25017KT 29/13 A299 RMK A01 T02930130  RH  037%=      5-min Rain = 0
KHA2 141631Z 24018KT 29/13 A299 RMK A01 T02940131  RH  037%=      5-min Rain = 0
KHA2 141632Z 24020G26KT 30/13 A299 RMK A01 T02970132  RH  036%=      5-min Rain = 0
KHA2 141633Z 24020G27KT 30/13 A299 RMK A01 T02980131  RH  036%=      5-min Rain = 0
KHA2 141634Z 24022KT 30/13 A299 RMK A01 T02980129  RH  035%=      5-min Rain = 0
KHA2 141635Z 24019G26KT 30/13 A299 RMK A01 T02960130  RH  036%=      5-min Rain = 0
KHA2 141636Z 25020G25KT 30/13 A299 RMK A01 T02960129  RH  036%=      5-min Rain = 0
KHA2 141637Z 25022G28KT 30/13 A299 RMK A01 T02970129  RH  036%=      5-min Rain = 0
KHA2 141638Z 24021G26KT 30/13 A299 RMK A01 T02970127  RH  035%=      5-min Rain = 0
KHA2 141639Z 24020KT 30/13 A299 RMK A01 T02950128  RH  036%=      5-min Rain = 0
KHA2 141640Z 25018G23KT 30/13 A299 RMK A01 T02970131  RH  036%=      5-min Rain = 0
KHA2 141641Z 24024G29KT 30/13 A299 RMK A01 T02990129  RH  035%=      5-min Rain = 0
KHA2 141642Z 24025KT 30/13 A299 RMK A01 T02980126  RH  035%=      5-min Rain = 0
KHA2 141643Z 25022G27KT 30/12 A299 RMK A01 T02970124  RH  035%=      5-min Rain = 0
KHA2 141644Z 25020KT 30/13 A299 RMK A01 T02960127  RH  035%=      5-min Rain = 0
KHA2 141645Z 26021G27KT 30/13 A299 RMK A01 T02970128  RH  035%=      5-min Rain = 0
KHA2 141646Z 25022KT 30/13 A299 RMK A01 T02980130  RH  036%=      5-min Rain = 0
KHA2 141647Z 24021G26KT 30/13 A299 RMK A01 T02990132  RH  036%=      5-min Rain = 0
KHA2 141648Z 24019G25KT 30/13 A299 RMK A01 T02990131  RH  036%=      5-min Rain = 0
KHA2 141649Z 25018KT 30/13 A299 RMK A01 T03020129  RH  035%=      5-min Rain = 0
KHA2 141650Z 25019G24KT 30/13 A299 RMK A01 T03020130  RH  035%=      5-min Rain = 0
KHA2 141651Z 25021KT 30/13 A299 RMK A01 T03020129  RH  035%=      5-min Rain = 0
KHA2 141652Z 26017G22KT 30/13 A299 RMK A01 T03020129  RH  035%=      5-min Rain = 0
KHA2 141653Z 25020KT 30/13 A299 RMK A01 T03020128  RH  034%=      5-min Rain = 0
KHA2 141654Z 25018KT 30/13 A299 RMK A01 T03000127  RH  035%=      5-min Rain = 0
KHA2 141655Z 25017G24KT 30/13 A299 RMK A01 T03010130  RH  035%=      5-min Rain = 0
KHA2 141656Z 24024KT 30/13 A299 RMK A01 T03020126  RH  034%=      5-min Rain = 0
KHA2 141657Z 24018KT 30/12 A299 RMK A01 T02990124  RH  034%=      5-min Rain = 0
KHA2 141658Z 25021KT 30/13 A299 RMK A01 T02990126  RH  035%=      5-min Rain = 0
KHA2 141659Z 25018KT 30/13 A299 RMK A01 T02990126  RH  035%=      5-min Rain = 0
KHA2 141700Z 25017KT 30/13 A299 RMK A01 T02980128  RH  035%=      5-min Rain = 0
KHA2 141701Z 25018KT 30/13 A299 RMK A01 T02980127  RH  035%=      5-min Rain = 0
KHA2 141702Z 26018G23KT 30/12 A299 RMK A01 T02980124  RH  034%=      5-min Rain = 0
KHA2 141703Z 25016KT 30/13 A299 RMK A01 T02980125  RH  035%=      5-min Rain = 0
KHA2 141704Z 25015KT 30/13 A299 RMK A01 T02980127  RH  035%=      5-min Rain = 0
KHA2 141705Z 24019G24KT 30/13 A299 RMK A01 T02990127  RH  035%=      5-min Rain = 0
KHA2 141706Z 24020KT 30/12 A299 RMK A01 T02980124  RH  034%=      5-min Rain = 0
KHA2 141707Z 24020KT 30/12 A299 RMK A01 T02970124  RH  035%=      5-min Rain = 0
KHA2 141708Z 24020KT 30/12 A299 RMK A01 T02970124  RH  035%=      5-min Rain = 0
KHA2 141709Z 24020KT 30/13 A299 RMK A01 T02970126  RH  035%=      5-min Rain = 0
KHA2 141710Z 24018KT 30/13 A299 RMK A01 T02970127  RH  035%=      5-min Rain = 0
KHA2 141711Z 24015KT 30/13 A299 RMK A01 T02970128  RH  035%=      5-min Rain = 0
KHA2 141712Z 24018KT 30/13 A299 RMK A01 T02980129  RH  035%=      5-min Rain = 0
KHA2 141713Z 23017KT 30/13 A299 RMK A01 T02990129  RH  035%=      5-min Rain = 0
KHA2 141714Z 23017KT 30/13 A299 RMK A01 T02990127  RH  035%=      5-min Rain = 0
KHA2 141715Z 24019KT 30/13 A299 RMK A01 T03000128  RH  035%=      5-min Rain = 0
KHA2 141716Z 23017KT 30/13 A299 RMK A01 T02990128  RH  035%=      5-min Rain = 0
KHA2 141717Z 23015KT 30/13 A299 RMK A01 T02990129  RH  035%=      5-min Rain = 0
KHA2 141718Z 24013KT 30/13 A299 RMK A01 T03010131  RH  035%=      5-min Rain = 0
KHA2 141719Z 23017KT 30/13 A299 RMK A01 T03020131  RH  035%=      5-min Rain = 0
KHA2 141720Z 24019KT 30/13 A299 RMK A01 T03030129  RH  034%=      5-min Rain = 0
KHA2 141721Z 24019KT 30/13 A299 RMK A01 T03010127  RH  034%=      5-min Rain = 0
KHA2 141722Z 24017KT 30/13 A299 RMK A01 T02990127  RH  035%=      5-min Rain = 0
KHA2 141723Z 23014KT 30/13 A299 RMK A01 T02990128  RH  035%=      5-min Rain = 0
KHA2 141724Z 23016G21KT 30/13 A299 RMK A01 T03000131  RH  035%=      5-min Rain = 0
KHA2 141725Z 24021KT 30/13 A299 RMK A01 T03020130  RH  035%=      5-min Rain = 0
KHA2 141726Z 23018KT 30/13 A299 RMK A01 T03010128  RH  035%=      5-min Rain = 0
KHA2 141727Z 23018KT 30/13 A299 RMK A01 T02990127  RH  035%=      5-min Rain = 0
KHA2 141728Z 24018KT 30/13 A299 RMK A01 T02990129  RH  035%=      5-min Rain = 0
KHA2 141729Z 24018KT 30/13 A299 RMK A01 T02990129  RH  035%=      5-min Rain = 0
KHA2 141730Z 24015KT 30/13 A299 RMK A01 T03000128  RH  035%=      5-min Rain = 0
KHA2 141731Z 23014G21KT 30/13 A299 RMK A01 T03020131  RH  035%=      5-min Rain = 0
KHA2 141732Z 24019KT 30/13 A2989 RMK A01 T03030130  RH  035%=      5-min Rain = 0
KHA2 141733Z 24018KT 30/13 A2989 RMK A01 T03040129  RH  034%=      5-min Rain = 0
KHA2 141734Z 24019KT 30/13 A2989 RMK A01 T03030129  RH  034%=      5-min Rain = 0
KHA2 141735Z 24018KT 30/13 A2989 RMK A01 T03020128  RH  035%=      5-min Rain = 0
KHA2 141736Z 24016KT 30/13 A2989 RMK A01 T03010127  RH  034%=      5-min Rain = 0
KHA2 141737Z 23015KT 30/13 A2989 RMK A01 T03010129  RH  035%=      5-min Rain = 0
KHA2 141738Z 22014G19KT 30/13 A2989 RMK A01 T03020133  RH  036%=      5-min Rain = 0
KHA2 141739Z 22017KT 30/13 A2989 RMK A01 T03030131  RH  035%=      5-min Rain = 0
KHA2 141740Z 22018KT 30/13 A2989 RMK A01 T03020130  RH  035%=      5-min Rain = 0
KHA2 141741Z 22015KT 30/13 A2989 RMK A01 T03010129  RH  035%=      5-min Rain = 0
KHA2 141742Z 23017KT 30/13 A2989 RMK A01 T03010131  RH  035%=      5-min Rain = 0
KHA2 141743Z 22015G20KT 30/13 A2989 RMK A01 T03030132  RH  035%=      5-min Rain = 0
KHA2 141744Z 22019KT 30/13 A2989 RMK A01 T03040129  RH  034%=      5-min Rain = 0
KHA2 141745Z 23017G23KT 30/13 A2989 RMK A01 T03030130  RH  035%=      5-min Rain = 0
KHA2 141746Z 22018KT 30/13 A2989 RMK A01 T03040131  RH  035%=      5-min Rain = 0
KHA2 141747Z 22016KT 31/13 A2989 RMK A01 T03050129  RH  034%=      5-min Rain = 0
KHA2 141748Z 22015KT 31/13 A2989 RMK A01 T03050131  RH  034%=      5-min Rain = 0
KHA2 141749Z 22017KT 31/13 A2989 RMK A01 T03070132  RH  034%=      5-min Rain = 0
KHA2 141750Z 22016KT 31/13 A2989 RMK A01 T03080132  RH  034%=      5-min Rain = 0
KHA2 141751Z 22014KT 31/13 A2989 RMK A01 T03090134  RH  035%=      5-min Rain = 0
KHA2 141752Z 21018G23KT 31/14 A2989 RMK A01 T03120135  RH  034%=      5-min Rain = 0
KHA2 141753Z 22017KT 31/13 A2989 RMK A01 T03120131  RH  033%=      5-min Rain = 0
KHA2 141754Z 23016KT 31/13 A2989 RMK A01 T03110129  RH  033%=      5-min Rain = 0
KHA2 141755Z 24017G22KT 31/13 A2988 RMK A01 T03100130  RH  033%=      5-min Rain = 0
KHA2 141756Z 23017KT 31/13 A2988 RMK A01 T03130134  RH  033%=      5-min Rain = 0
KHA2 141757Z 23015KT 32/13 A2988 RMK A01 T03160129  RH  032%=      5-min Rain = 0
KHA2 141758Z 22018KT 32/13 A2988 RMK A01 T03150131  RH  033%=      5-min Rain = 0
KHA2 141759Z 23014KT 32/13 A2988 RMK A01 T03150130  RH  032%=      5-min Rain = 0
KHA2 141800Z 23016KT 32/13 A2988 RMK A01 T03170131  RH  032%=      5-min Rain = 0
KHA2 141801Z 22018KT 32/13 A2988 RMK A01 T03170127  RH  031%=      5-min Rain = 0
KHA2 141802Z 22017G23KT 32/13 A2988 RMK A01 T03160125  RH  031%=      5-min Rain = 0
KHA2 141803Z 23020KT 32/12 A2988 RMK A01 T03170124  RH  031%=      5-min Rain = 0
KHA2 141804Z 23018G24KT 32/12 A2988 RMK A01 T03170121  RH  030%=      5-min Rain = 0
KHA2 141805Z 23017G22KT 32/12 A2988 RMK A01 T03160122  RH  031%=      5-min Rain = 0
KHA2 141806Z 23018KT 32/13 A2988 RMK A01 T03180125  RH  031%=      5-min Rain = 0
KHA2 141807Z 23017KT 32/13 A2988 RMK A01 T03220126  RH  030%=      5-min Rain = 0
KHA2 141808Z 24017KT 33/12 A2988 RMK A01 T03250123  RH  029%=      5-min Rain = 0
KHA2 141809Z 24015KT 33/12 A2988 RMK A01 T03260117  RH  028%=      5-min Rain = 0
KHA2 141810Z 21016G25KT 32/12 A2988 RMK A01 T03230120  RH  029%=      5-min Rain = 0
KHA2 141811Z 21017KT 32/12 A2988 RMK A01 T03230120  RH  029%=      5-min Rain = 0
KHA2 141812Z 23015KT 32/12 A2988 RMK A01 T03230120  RH  029%=      5-min Rain = 0
KHA2 141813Z 23016G22KT 33/12 A2988 RMK A01 T03250122  RH  029%=      5-min Rain = 0
KHA2 141814Z 23016KT 33/12 A2988 RMK A01 T03290124  RH  029%=      5-min Rain = 0
KHA2 141815Z 25017KT 34/12 A2988 RMK A01 T03360118  RH  027%=      5-min Rain = 0
KHA2 141816Z 26020KT 34/11 A2988 RMK A01 T03400109  RH  025%=      5-min Rain = 0
KHA2 141817Z 25019KT 34/11 A2988 RMK A01 T03380107  RH  024%=      5-min Rain = 0
KHA2 141818Z 25016KT 34/10 A2988 RMK A01 T03380104  RH  024%=      5-min Rain = 0
KHA2 141819Z 24016KT 34/10 A2988 RMK A01 T03380103  RH  024%=      5-min Rain = 0
KHA2 141820Z 23017G22KT 34/10 A2988 RMK A01 T03380102  RH  024%=      5-min Rain = 0
KHA2 141821Z 23014KT 34/10 A2988 RMK A01 T03380103  RH  024%=      5-min Rain = 0
KHA2 141822Z 24016KT 34/11 A2988 RMK A01 T03400106  RH  024%=      5-min Rain = 0
KHA2 141823Z 24017G23KT 34/11 A2988 RMK A01 T03410106  RH  024%=      5-min Rain = 0
KHA2 141824Z 24016KT 34/11 A2988 RMK A01 T03410105  RH  024%=      5-min Rain = 0
KHA2 141825Z 23020G26KT 35/11 A2988 RMK A01 T03450108  RH  024%=      5-min Rain = 0
KHA2 141826Z 25019G25KT 35/11 A2988 RMK A01 T03470106  RH  023%=      5-min Rain = 0
KHA2 141827Z 24017KT 34/11 A2988 RMK A01 T03440105  RH  023%=      5-min Rain = 0
KHA2 141828Z 24016KT 34/11 A2988 RMK A01 T03430108  RH  024%=      5-min Rain = 0
KHA2 141829Z 23015KT 34/11 A2988 RMK A01 T03430105  RH  023%=      5-min Rain = 0
KHA2 141830Z 25014KT 34/11 A2988 RMK A01 T03420105  RH  024%=      5-min Rain = 0
KHA2 141831Z 24016KT 34/11 A2988 RMK A01 T03420107  RH  024%=      5-min Rain = 0
KHA2 141832Z 24019KT 35/10 A2987 RMK A01 T03450104  RH  023%=      5-min Rain = 0
KHA2 141833Z 24016KT 35/10 A2988 RMK A01 T03470103  RH  023%=      5-min Rain = 0
KHA2 141834Z 25016KT 35/10 A2987 RMK A01 T03450100  RH  022%=      5-min Rain = 0
KHA2 141835Z 24017KT 34/10 A2987 RMK A01 T03410099  RH  023%=      5-min Rain = 0
KHA2 141836Z 23016G21KT 34/10 A2987 RMK A01 T03420104  RH  023%=      5-min Rain = 0
KHA2 141837Z 23019KT 34/10 A2987 RMK A01 T03430098  RH  022%=      5-min Rain = 0
KHA2 141838Z 24021KT 34/10 A2987 RMK A01 T03420096  RH  022%=      5-min Rain = 0
KHA2 141839Z 24019KT 34/10 A2987 RMK A01 T03410098  RH  023%=      5-min Rain = 0
KHA2 141840Z 25018G23KT 34/10 A2987 RMK A01 T03420100  RH  023%=      5-min Rain = 0
KHA2 141841Z 27016KT 34/10 A2987 RMK A01 T03440101  RH  023%=      5-min Rain = 0
KHA2 141842Z 27015KT 34/10 A2987 RMK A01 T03440100  RH  023%=      5-min Rain = 0
KHA2 141843Z 28012KT 34/10 A2987 RMK A01 T03390100  RH  023%=      5-min Rain = 0
KHA2 141844Z 27012KT 34/10 A2987 RMK A01 T03410101  RH  023%=      5-min Rain = 0
KHA2 141845Z 26012G19KT 34/10 A2987 RMK A01 T03440101  RH  023%=      5-min Rain = 0
KHA2 141846Z 23016KT 35/10 A2987 RMK A01 T03450099  RH  022%=      5-min Rain = 0
KHA2 141847Z 24015KT 34/10 A2987 RMK A01 T03440099  RH  022%=      5-min Rain = 0
KHA2 141848Z 25010KT 34/10 A2987 RMK A01 T03440099  RH  022%=      5-min Rain = 0
KHA2 141849Z 23011KT 34/10 A2987 RMK A01 T03430100  RH  023%=      5-min Rain = 0
KHA2 141850Z 24014KT 34/10 A2987 RMK A01 T03430101  RH  023%=      5-min Rain = 0
KHA2 141851Z 24013KT 34/10 A2987 RMK A01 T03440101  RH  023%=      5-min Rain = 0
KHA2 141852Z 25013KT 35/10 A2987 RMK A01 T03470103  RH  023%=      5-min Rain = 0
KHA2 141853Z 25017G23KT 35/10 A2987 RMK A01 T03500099  RH  022%=      5-min Rain = 0
KHA2 141854Z 25017KT 35/10 A2987 RMK A01 T03510097  RH  021%=      5-min Rain = 0
KHA2 141855Z 25014KT 35/10 A2987 RMK A01 T03500097  RH  021%=      5-min Rain = 0
KHA2 141856Z 24013KT 35/10 A2987 RMK A01 T03510099  RH  022%=      5-min Rain = 0
KHA2 141857Z 24016G21KT 35/10 A2987 RMK A01 T03530103  RH  022%=      5-min Rain = 0
KHA2 141858Z 24018KT 35/10 A2987 RMK A01 T03530101  RH  022%=      5-min Rain = 0
KHA2 141859Z 26010KT 35/10 A2987 RMK A01 T03480095  RH  021%=      5-min Rain = 0
KHA2 141900Z 25012KT 34/10 A2987 RMK A01 T03440096  RH  022%=      5-min Rain = 0
KHA2 141901Z 25013KT 34/10 A2987 RMK A01 T03440097  RH  022%=      5-min Rain = 0
KHA2 141902Z 26013KT 35/10 A2987 RMK A01 T03450098  RH  022%=      5-min Rain = 0
KHA2 141903Z 25014KT 35/10 A2987 RMK A01 T03460101  RH  022%=      5-min Rain = 0
KHA2 141904Z 26016KT 35/10 A2986 RMK A01 T03480100  RH  022%=      5-min Rain = 0
KHA2 141905Z 24016KT 35/10 A2987 RMK A01 T03480099  RH  022%=      5-min Rain = 0
KHA2 141906Z 24015KT 35/10 A2987 RMK A01 T03460098  RH  022%=      5-min Rain = 0
KHA2 141907Z 24014KT 34/10 A2986 RMK A01 T03430097  RH  022%=      5-min Rain = 0
KHA2 141908Z 24011KT 34/10 A2986 RMK A01 T03410098  RH  023%=      5-min Rain = 0
KHA2 141909Z 26009KT 34/10 A2986 RMK A01 T03420101  RH  023%=      5-min Rain = 0
KHA2 141910Z 25011KT 35/10 A2986 RMK A01 T03450101  RH  023%=      5-min Rain = 0
KHA2 141911Z 25008KT 35/10 A2986 RMK A01 T03450101  RH  023%=      5-min Rain = 0
KHA2 141912Z 27011KT 35/10 A2986 RMK A01 T03450101  RH  023%=      5-min Rain = 0
KHA2 141913Z 26011KT 35/10 A2986 RMK A01 T03450102  RH  023%=      5-min Rain = 0
KHA2 141914Z 26012KT 35/10 A2986 RMK A01 T03460101  RH  023%=      5-min Rain = 0
KHA2 141915Z 23011KT 35/10 A2986 RMK A01 T03460095  RH  022%=      5-min Rain = 0
KHA2 141916Z 26011KT 35/10 A2986 RMK A01 T03470095  RH  021%=      5-min Rain = 0
KHA2 141917Z 26013KT 35/09 A2986 RMK A01 T03500093  RH  021%=      5-min Rain = 0
KHA2 141918Z 25014KT 35/09 A2986 RMK A01 T03500092  RH  021%=      5-min Rain = 0
KHA2 141919Z 26012KT 35/09 A2986 RMK A01 T03500092  RH  021%=      5-min Rain = 0
KHA2 141920Z 28013KT 35/09 A2986 RMK A01 T03500091  RH  021%=      5-min Rain = 0
KHA2 141921Z 27013KT 35/09 A2986 RMK A01 T03500090  RH  020%=      5-min Rain = 0
KHA2 141922Z 26011KT 35/10 A2986 RMK A01 T03530096  RH  021%=      5-min Rain = 0
KHA2 141923Z 26010KT 35/10 A2985 RMK A01 T03540096  RH  021%=      5-min Rain = 0
KHA2 141924Z 26010KT 35/09 A2985 RMK A01 T03540094  RH  020%=      5-min Rain = 0
KHA2 141925Z 27012KT 36/10 A2985 RMK A01 T03550097  RH  021%=      5-min Rain = 0
KHA2 141926Z 27015KT 36/10 A2985 RMK A01 T03550095  RH  021%=      5-min Rain = 0
KHA2 141927Z 26015KT 35/10 A2985 RMK A01 T03530099  RH  021%=      5-min Rain = 0
KHA2 141928Z 25016G21KT 36/10 A2985 RMK A01 T03550101  RH  021%=      5-min Rain = 0
KHA2 141929Z 26020KT 36/10 A2985 RMK A01 T03560098  RH  021%=      5-min Rain = 0
KHA2 141930Z 26018KT 36/10 A2985 RMK A01 T03550097  RH  021%=      5-min Rain = 0
KHA2 141931Z 25017KT 36/10 A2985 RMK A01 T03550098  RH  021%=      5-min Rain = 0
KHA2 141932Z 25016KT 36/10 A2985 RMK A01 T03550096  RH  021%=      5-min Rain = 0
KHA2 141933Z 25018KT 36/10 A2985 RMK A01 T03570100  RH  021%=      5-min Rain = 0
KHA2 141934Z 25015KT 36/09 A2985 RMK A01 T03580092  RH  020%=      5-min Rain = 0
KHA2 141935Z 25013KT 36/09 A2985 RMK A01 T03550092  RH  020%=      5-min Rain = 0
KHA2 141936Z 24015G21KT 36/09 A2985 RMK A01 T03560093  RH  020%=      5-min Rain = 0
KHA2 141937Z 24017KT 36/09 A2985 RMK A01 T03560090  RH  020%=      5-min Rain = 0
KHA2 141938Z 25016KT 36/09 A2985 RMK A01 T03570086  RH  019%=      5-min Rain = 0
KHA2 141939Z 24017G24KT 36/08 A2985 RMK A01 T03550084  RH  019%=      5-min Rain = 0
KHA2 141940Z 24018KT 36/08 A2985 RMK A01 T03570081  RH  018%=      5-min Rain = 0
KHA2 141941Z 24016KT 36/08 A2985 RMK A01 T03610075  RH  017%=      5-min Rain = 0
KHA2 141942Z 25018KT 36/07 A2985 RMK A01 T03580072  RH  017%=      5-min Rain = 0
KHA2 141943Z 24015KT 36/07 A2985 RMK A01 T03570074  RH  018%=      5-min Rain = 0
KHA2 141944Z 26016KT 36/08 A2985 RMK A01 T03590080  RH  018%=      5-min Rain = 0
KHA2 141945Z 26014KT 36/08 A2985 RMK A01 T03620079  RH  018%=      5-min Rain = 0
KHA2 141946Z 25014KT 36/08 A2985 RMK A01 T03610075  RH  017%=      5-min Rain = 0
KHA2 141947Z 26012KT 36/08 A2985 RMK A01 T03590080  RH  018%=      5-min Rain = 0
KHA2 141948Z 26012KT 36/08 A2985 RMK A01 T03610077  RH  018%=      5-min Rain = 0
KHA2 141949Z 24015KT 36/08 A2985 RMK A01 T03600077  RH  018%=      5-min Rain = 0
KHA2 141950Z 25016KT 36/07 A2985 RMK A01 T03600073  RH  017%=      5-min Rain = 0
KHA2 141951Z 25017KT 36/08 A2985 RMK A01 T03630075  RH  017%=      5-min Rain = 0
KHA2 141952Z 26015KT 36/07 A2985 RMK A01 T03640072  RH  017%=      5-min Rain = 0
KHA2 141953Z 25014KT 36/07 A2985 RMK A01 T03640069  RH  016%=      5-min Rain = 0
KHA2 141954Z 24013G21KT 37/07 A2985 RMK A01 T03650071  RH  017%=      5-min Rain = 0
KHA2 141955Z 23017KT 37/07 A2985 RMK A01 T03680073  RH  016%=      5-min Rain = 0
KHA2 141956Z 24019KT 37/07 A2985 RMK A01 T03680072  RH  016%=      5-min Rain = 0
KHA2 141957Z 24017KT 37/08 A2985 RMK A01 T03670077  RH  017%=      5-min Rain = 0
KHA2 141958Z 25013KT 37/08 A2985 RMK A01 T03680079  RH  017%=      5-min Rain = 0
KHA2 141959Z 26013KT 37/07 A2985 RMK A01 T03650073  RH  017%=      5-min Rain = 0
KHA2 142000Z 25013KT 36/08 A2985 RMK A01 T03610076  RH  017%=      5-min Rain = 0
KHA2 142001Z 24016KT 36/08 A2985 RMK A01 T03590079  RH  018%=      5-min Rain = 0
KHA2 142002Z 24017KT 36/08 A2985 RMK A01 T03560078  RH  018%=      5-min Rain = 0
KHA2 142003Z 24018KT 36/08 A2985 RMK A01 T03550077  RH  018%=      5-min Rain = 0
KHA2 142004Z 24016KT 35/07 A2985 RMK A01 T03540069  RH  017%=      5-min Rain = 0
KHA2 142005Z 24016KT 35/06 A2985 RMK A01 T03540064  RH  017%=      5-min Rain = 0
KHA2 142006Z 25016KT 35/06 A2985 RMK A01 T03540064  RH  017%=      5-min Rain = 0
KHA2 142007Z 25013KT 35/07 A2985 RMK A01 T03530069  RH  017%=      5-min Rain = 0
KHA2 142008Z 25014KT 35/07 A2985 RMK A01 T03520068  RH  017%=      5-min Rain = 0
KHA2 142009Z 24015KT 35/06 A2985 RMK A01 T03500064  RH  017%=      5-min Rain = 0
KHA2 142010Z 24013KT 35/07 A2985 RMK A01 T03480070  RH  018%=      5-min Rain = 0
KHA2 142011Z 25014KT 35/07 A2985 RMK A01 T03490070  RH  018%=      5-min Rain = 0
KHA2 142012Z 26013KT 35/07 A2985 RMK A01 T03490071  RH  018%=      5-min Rain = 0
KHA2 142013Z 25010KT 35/07 A2985 RMK A01 T03490073  RH  018%=      5-min Rain = 0
KHA2 142014Z 24012KT 35/07 A2985 RMK A01 T03500074  RH  018%=      5-min Rain = 0
KHA2 142015Z 25012KT 35/07 A2984 RMK A01 T03490073  RH  018%=      5-min Rain = 0
KHA2 142016Z 24013KT 35/07 A2984 RMK A01 T03480072  RH  018%=      5-min Rain = 0
KHA2 142017Z 25013KT 35/07 A2984 RMK A01 T03480072  RH  018%=      5-min Rain = 0
KHA2 142018Z 25011KT 35/07 A2984 RMK A01 T03480071  RH  018%=      5-min Rain = 0
KHA2 142019Z 25010KT 35/07 A2984 RMK A01 T03490072  RH  018%=      5-min Rain = 0
KHA2 142020Z 25011KT 35/07 A2984 RMK A01 T03500067  RH  017%=      5-min Rain = 0
KHA2 142021Z 26011KT 35/07 A2984 RMK A01 T03500066  RH  017%=      5-min Rain = 0
KHA2 142022Z 26010KT 35/06 A2984 RMK A01 T03490058  RH  016%=      5-min Rain = 0
KHA2 142023Z 27009KT 35/06 A2984 RMK A01 T03490061  RH  017%=      5-min Rain = 0
KHA2 142024Z 26008KT 35/06 A2984 RMK A01 T03500057  RH  016%=      5-min Rain = 0
KHA2 142025Z 27008KT 35/06 A2984 RMK A01 T03500063  RH  017%=      5-min Rain = 0
KHA2 142026Z 27009KT 35/06 A2984 RMK A01 T03510057  RH  016%=      5-min Rain = 0
KHA2 142027Z 28009KT 35/05 A2984 RMK A01 T03510051  RH  016%=      5-min Rain = 0
KHA2 142028Z 27007KT 35/05 A2984 RMK A01 T03510054  RH  016%=      5-min Rain = 0
KHA2 142029Z 26008KT 35/05 A2984 RMK A01 T03510052  RH  016%=      5-min Rain = 0
KHA2 142030Z 26009KT 35/05 A2984 RMK A01 T03500051  RH  016%=      5-min Rain = 0
KHA2 142031Z 26008KT 35/05 A2984 RMK A01 T03510051  RH  016%=      5-min Rain = 0
KHA2 142032Z 27005KT 35/06 A2984 RMK A01 T03510057  RH  016%=      5-min Rain = 0
KHA2 142033Z 27008KT 35/06 A2984 RMK A01 T03520055  RH  016%=      5-min Rain = 0
KHA2 142034Z 28007KT 35/06 A2984 RMK A01 T03520055  RH  016%=      5-min Rain = 0
KHA2 142035Z 27008KT 35/05 A2984 RMK A01 T03540050  RH  015%=      5-min Rain = 0
KHA2 142036Z 28007KT 35/05 A2984 RMK A01 T03530049  RH  015%=      5-min Rain = 0
KHA2 142037Z 27010G15KT 35/06 A2984 RMK A01 T03510063  RH  017%=      5-min Rain = 0
KHA2 142038Z 30009KT 35/08 A2984 RMK A01 T03510078  RH  019%=      5-min Rain = 0
KHA2 142039Z 32009KT 35/08 A2984 RMK A01 T03530082  RH  019%=      5-min Rain = 0
KHA2 142040Z 32009KT 35/07 A2983 RMK A01 T03540074  RH  018%=      5-min Rain = 0
KHA2 142041Z 30009KT 35/07 A2983 RMK A01 T03540073  RH  018%=      5-min Rain = 0
KHA2 142042Z 31008KT 35/07 A2983 RMK A01 T03530073  RH  018%=      5-min Rain = 0
KHA2 142043Z 31007KT 35/08 A2983 RMK A01 T03520077  RH  018%=      5-min Rain = 0
KHA2 142044Z 30005KT 35/07 A2983 RMK A01 T03540071  RH  018%=      5-min Rain = 0
KHA2 142045Z 30003KT 36/07 A2983 RMK A01 T03550074  RH  018%=      5-min Rain = 0
KHA2 142046Z 29004KT 36/07 A2983 RMK A01 T03560072  RH  017%=      5-min Rain = 0
KHA2 142047Z 32003KT 36/07 A2983 RMK A01 T03570069  RH  017%=      5-min Rain = 0
KHA2 142048Z 32006KT 36/07 A2983 RMK A01 T03570068  RH  017%=      5-min Rain = 0
KHA2 142049Z 29006KT 36/06 A2983 RMK A01 T03570064  RH  016%=      5-min Rain = 0
KHA2 142050Z 33008KT 36/08 A2983 RMK A01 T03580077  RH  018%=      5-min Rain = 0
KHA2 142051Z 32008KT 36/07 A2983 RMK A01 T03610072  RH  017%=      5-min Rain = 0
KHA2 142052Z 32011KT 36/07 A2983 RMK A01 T03590071  RH  017%=      5-min Rain = 0
KHA2 142053Z 31010KT 36/07 A2983 RMK A01 T03590067  RH  017%=      5-min Rain = 0
KHA2 142054Z 30007KT 36/07 A2983 RMK A01 T03590068  RH  017%=      5-min Rain = 0
KHA2 142055Z 28005KT 36/07 A2983 RMK A01 T03570068  RH  017%=      5-min Rain = 0
KHA2 142056Z 32005KT 36/07 A2983 RMK A01 T03560068  RH  017%=      5-min Rain = 0
KHA2 142057Z 29003KT 36/06 A2982 RMK A01 T03570064  RH  016%=      5-min Rain = 0
KHA2 142058Z 31002KT 36/07 A2982 RMK A01 T03580069  RH  017%=      5-min Rain = 0
KHA2 142059Z 28003KT 36/07 A2982 RMK A01 T03590067  RH  017%=      5-min Rain = 0
KHA2 142100Z 28004KT 36/06 A2982 RMK A01 T03600063  RH  016%=      5-min Rain = 0
KHA2 142101Z 27004KT 36/06 A2982 RMK A01 T03590056  RH  015%=      5-min Rain = 0
KHA2 142102Z 27006KT 36/06 A2982 RMK A01 T03590058  RH  016%=      5-min Rain = 0
KHA2 142103Z 27008KT 36/06 A2982 RMK A01 T03640062  RH  016%=      5-min Rain = 0
KHA2 142104Z 26007KT 37/06 A2982 RMK A01 T03670056  RH  015%=      5-min Rain = 0
KHA2 142105Z 26006KT 37/05 A2982 RMK A01 T03670050  RH  014%=      5-min Rain = 0
KHA2 142106Z 27005KT 36/05 A2982 RMK A01 T03640051  RH  015%=      5-min Rain = 0
KHA2 142107Z 29003KT 36/05 A2982 RMK A01 T03630050  RH  014%=      5-min Rain = 0
KHA2 142108Z 31005KT 36/06 A2982 RMK A01 T03630055  RH  015%=      5-min Rain = 0
KHA2 142109Z 31007KT 36/06 A2982 RMK A01 T03630060  RH  015%=      5-min Rain = 0
KHA2 142110Z 30008KT 36/06 A2982 RMK A01 T03630055  RH  015%=      5-min Rain = 0
KHA2 142111Z 31007KT 36/05 A2982 RMK A01 T03630052  RH  015%=      5-min Rain = 0
KHA2 142112Z 31004KT 36/05 A2982 RMK A01 T03630053  RH  015%=      5-min Rain = 0
KHA2 142113Z 29006KT 36/06 A2982 RMK A01 T03610059  RH  015%=      5-min Rain = 0
KHA2 142114Z 29006KT 36/07 A2982 RMK A01 T03620065  RH  016%=      5-min Rain = 0
KHA2 142115Z 30008KT 36/07 A2982 RMK A01 T03620066  RH  016%=      5-min Rain = 0
KHA2 142116Z 30008KT 36/07 A2982 RMK A01 T03640065  RH  016%=      5-min Rain = 0
KHA2 142117Z 29007KT 36/06 A2982 RMK A01 T03620058  RH  015%=      5-min Rain = 0
KHA2 142118Z 28006KT 36/06 A2982 RMK A01 T03590055  RH  015%=      5-min Rain = 0
KHA2 142119Z 27010KT 36/06 A2982 RMK A01 T03570059  RH  016%=      5-min Rain = 0
KHA2 142120Z 28007KT 36/06 A2982 RMK A01 T03580063  RH  016%=      5-min Rain = 0
KHA2 142121Z 26006KT 36/07 A2982 RMK A01 T03600065  RH  016%=      5-min Rain = 0
KHA2 142122Z 25005KT 36/07 A2982 RMK A01 T03610066  RH  016%=      5-min Rain = 0
KHA2 142123Z 25006KT 36/07 A2982 RMK A01 T03610067  RH  016%=      5-min Rain = 0
KHA2 142124Z 21007KT 36/08 A2982 RMK A01 T03610075  RH  017%=      5-min Rain = 0
KHA2 142125Z 21005KT 36/07 A2981 RMK A01 T03610074  RH  017%=      5-min Rain = 0
KHA2 142126Z 24007KT 36/07 A2981 RMK A01 T03600065  RH  016%=      5-min Rain = 0
KHA2 142127Z 24010KT 36/05 A2981 RMK A01 T03610049  RH  014%=      5-min Rain = 0
KHA2 142128Z 25009KT 36/05 A2981 RMK A01 T03630047  RH  014%=      5-min Rain = 0
KHA2 142129Z 26009KT 37/04 A2981 RMK A01 T03650044  RH  014%=      5-min Rain = 0
KHA2 142130Z 26009KT 36/05 A2981 RMK A01 T03640045  RH  014%=      5-min Rain = 0
KHA2 142131Z 25011KT 37/05 A2981 RMK A01 T03660047  RH  014%=      5-min Rain = 0
KHA2 142132Z 26010KT 37/04 A2981 RMK A01 T03670042  RH  013%=      5-min Rain = 0
KHA2 142133Z 26011KT 37/04 A2981 RMK A01 T03660043  RH  014%=      5-min Rain = 0
KHA2 142134Z 26009KT 37/05 A2981 RMK A01 T03650045  RH  014%=      5-min Rain = 0
KHA2 142135Z 27010KT 37/05 A2981 RMK A01 T03660045  RH  014%=      5-min Rain = 0
KHA2 142136Z 27008KT 37/04 A2981 RMK A01 T03660039  RH  013%=      5-min Rain = 0
KHA2 142137Z 27008KT 36/04 A2981 RMK A01 T03640038  RH  013%=      5-min Rain = 0
KHA2 142138Z 27009KT 36/04 A2981 RMK A01 T03630042  RH  014%=      5-min Rain = 0
KHA2 142139Z 28010KT 36/04 A2981 RMK A01 T03630039  RH  013%=      5-min Rain = 0
KHA2 142140Z 28009KT 36/04 A2981 RMK A01 T03620038  RH  013%=      5-min Rain = 0
KHA2 142141Z 27009KT 36/04 A2981 RMK A01 T03610037  RH  013%=      5-min Rain = 0
KHA2 142142Z 26009KT 36/04 A2981 RMK A01 T03610040  RH  014%=      5-min Rain = 0
KHA2 142143Z 26010KT 36/04 A2981 RMK A01 T03610038  RH  013%=      5-min Rain = 0
KHA2 142144Z 26007KT 36/04 A2981 RMK A01 T03600038  RH  014%=      5-min Rain = 0
KHA2 142145Z 26008KT 36/04 A2981 RMK A01 T03590041  RH  014%=      5-min Rain = 0
KHA2 142146Z 26009KT 36/04 A2981 RMK A01 T03580043  RH  014%=      5-min Rain = 0
KHA2 142147Z 27011KT 36/04 A2981 RMK A01 T03580043  RH  014%=      5-min Rain = 0
KHA2 142148Z 27013KT 36/04 A2981 RMK A01 T03570043  RH  014%=      5-min Rain = 0
KHA2 142149Z 27010KT 36/05 A2981 RMK A01 T03560046  RH  015%=      5-min Rain = 0
KHA2 142150Z 27010KT 36/05 A2981 RMK A01 T03560047  RH  015%=      5-min Rain = 0
KHA2 142151Z 27010KT 36/05 A2981 RMK A01 T03560048  RH  015%=      5-min Rain = 0
KHA2 142152Z 28011KT 36/05 A2981 RMK A01 T03560048  RH  015%=      5-min Rain = 0
KHA2 142153Z 27011KT 36/05 A2981 RMK A01 T03550048  RH  015%=      5-min Rain = 0
KHA2 142154Z 28012KT 35/05 A2981 RMK A01 T03540049  RH  015%=      5-min Rain = 0
KHA2 142155Z 28010KT 35/05 A2981 RMK A01 T03540048  RH  015%=      5-min Rain = 0
KHA2 142156Z 28008KT 35/05 A2981 RMK A01 T03530051  RH  015%=      5-min Rain = 0
KHA2 142157Z 29009KT 36/05 A2981 RMK A01 T03550050  RH  015%=      5-min Rain = 0
KHA2 142158Z 29008KT 35/05 A2981 RMK A01 T03540049  RH  015%=      5-min Rain = 0
KHA2 142159Z 29008KT 35/05 A2981 RMK A01 T03530049  RH  015%=      5-min Rain = 0
KHA2 142200Z 29009KT 35/05 A2981 RMK A01 T03540047  RH  015%=      5-min Rain = 0
KHA2 142201Z 28008KT 35/05 A2981 RMK A01 T03540048  RH  015%=      5-min Rain = 0
KHA2 142202Z 28007KT 35/05 A2981 RMK A01 T03540051  RH  015%=      5-min Rain = 0
KHA2 142203Z 27009KT 36/05 A2981 RMK A01 T03550051  RH  015%=      5-min Rain = 0
KHA2 142204Z 27008KT 35/05 A2981 RMK A01 T03540050  RH  015%=      5-min Rain = 0
KHA2 142205Z 27007KT 35/05 A2981 RMK A01 T03540051  RH  015%=      5-min Rain = 0
KHA2 142206Z 25009KT 35/05 A2981 RMK A01 T03540051  RH  015%=      5-min Rain = 0
KHA2 142207Z 26008KT 35/05 A2981 RMK A01 T03540054  RH  016%=      5-min Rain = 0
KHA2 142208Z 26008KT 35/05 A2981 RMK A01 T03540053  RH  015%=      5-min Rain = 0
KHA2 142209Z 25008KT 35/06 A2981 RMK A01 T03540055  RH  016%=      5-min Rain = 0
KHA2 142210Z 25008KT 35/06 A2981 RMK A01 T03540055  RH  016%=      5-min Rain = 0
KHA2 142211Z 25007KT 35/06 A2981 RMK A01 T03540059  RH  016%=      5-min Rain = 0
KHA2 142212Z 24008KT 35/06 A2981 RMK A01 T03540059  RH  016%=      5-min Rain = 0
KHA2 142213Z 24009KT 35/06 A2981 RMK A01 T03530056  RH  016%=      5-min Rain = 0
KHA2 142214Z 23010KT 35/06 A2981 RMK A01 T03530059  RH  016%=      5-min Rain = 0
KHA2 142215Z 23008KT 35/06 A2981 RMK A01 T03520059  RH  016%=      5-min Rain = 0
KHA2 142216Z 22011KT 35/06 A2981 RMK A01 T03510061  RH  017%=      5-min Rain = 0
KHA2 142217Z 22014KT 35/06 A2981 RMK A01 T03520063  RH  017%=      5-min Rain = 0
KHA2 142218Z 20018KT 35/07 A2981 RMK A01 T03500071  RH  018%=      5-min Rain = 0
KHA2 142219Z 20018KT 35/09 A2981 RMK A01 T03460088  RH  021%=      5-min Rain = 0
KHA2 142220Z 20015KT 34/10 A2981 RMK A01 T03430095  RH  022%=      5-min Rain = 0
KHA2 142221Z 18016G21KT 34/10 A2981 RMK A01 T03400095  RH  022%=      5-min Rain = 0
KHA2 142222Z 18018KT 34/10 A2981 RMK A01 T03360103  RH  024%=      5-min Rain = 0
KHA2 142223Z 18017KT 33/11 A2981 RMK A01 T03320109  RH  026%=      5-min Rain = 0
KHA2 142224Z 18016KT 33/11 A2981 RMK A01 T03290113  RH  027%=      5-min Rain = 0
KHA2 142225Z 18015KT 33/11 A2981 RMK A01 T03270114  RH  027%=      5-min Rain = 0
KHA2 142226Z 18014KT 33/12 A2981 RMK A01 T03270116  RH  028%=      5-min Rain = 0
KHA2 142227Z 18015KT 33/12 A2981 RMK A01 T03260118  RH  028%=      5-min Rain = 0
KHA2 142228Z 18014KT 32/12 A2981 RMK A01 T03240119  RH  029%=      5-min Rain = 0
KHA2 142229Z 18014KT 32/12 A2981 RMK A01 T03230119  RH  029%=      5-min Rain = 0
KHA2 142230Z 18015KT 32/12 A2981 RMK A01 T03220121  RH  029%=      5-min Rain = 0
KHA2 142231Z 18015KT 32/12 A2981 RMK A01 T03210118  RH  029%=      5-min Rain = 0
KHA2 142232Z 18017KT 32/12 A2981 RMK A01 T03200118  RH  029%=      5-min Rain = 0
KHA2 142233Z 18016KT 32/12 A2981 RMK A01 T03190118  RH  029%=      5-min Rain = 0
KHA2 142234Z 18015KT 32/12 A2981 RMK A01 T03190118  RH  029%=      5-min Rain = 0
KHA2 142235Z 18014KT 32/12 A2981 RMK A01 T03190118  RH  029%=      5-min Rain = 0
KHA2 142236Z 18012KT 32/12 A2981 RMK A01 T03180120  RH  030%=      5-min Rain = 0
KHA2 142237Z 19013KT 32/12 A2981 RMK A01 T03170120  RH  030%=      5-min Rain = 0
KHA2 142238Z 19012KT 32/12 A2981 RMK A01 T03170118  RH  030%=      5-min Rain = 0
KHA2 142239Z 18010KT 32/12 A2981 RMK A01 T03170118  RH  030%=      5-min Rain = 0
KHA2 142240Z 18012KT 32/12 A2981 RMK A01 T03170118  RH  030%=      5-min Rain = 0
KHA2 142241Z 19013KT 32/11 A2981 RMK A01 T03170114  RH  029%=      5-min Rain = 0
KHA2 142242Z 18015KT 32/11 A2981 RMK A01 T03180111  RH  028%=      5-min Rain = 0
KHA2 142243Z 18014KT 32/11 A2981 RMK A01 T03180109  RH  028%=      5-min Rain = 0
KHA2 142244Z 18011KT 32/11 A2981 RMK A01 T03180111  RH  028%=      5-min Rain = 0
KHA2 142245Z 18010KT 32/12 A2981 RMK A01 T03180115  RH  029%=      5-min Rain = 0
KHA2 142246Z 18011KT 32/12 A2981 RMK A01 T03170117  RH  029%=      5-min Rain = 0
KHA2 142247Z 17011KT 32/12 A2981 RMK A01 T03150118  RH  030%=      5-min Rain = 0
KHA2 142248Z 18013KT 32/12 A2981 RMK A01 T03150118  RH  030%=      5-min Rain = 0
KHA2 142249Z 18014KT 31/12 A2981 RMK A01 T03140117  RH  030%=      5-min Rain = 0
KHA2 142250Z 19013KT 31/12 A298 RMK A01 T03140116  RH  030%=      5-min Rain = 0
KHA2 142251Z 19012KT 32/12 A298 RMK A01 T03150119  RH  030%=      5-min Rain = 0
KHA2 142252Z 19011KT 32/12 A298 RMK A01 T03150118  RH  030%=      5-min Rain = 0
KHA2 142253Z 20012KT 32/12 A298 RMK A01 T03150117  RH  030%=      5-min Rain = 0
KHA2 142254Z 20012KT 32/12 A298 RMK A01 T03160116  RH  029%=      5-min Rain = 0
KHA2 142255Z 20012KT 32/11 A298 RMK A01 T03170114  RH  029%=      5-min Rain = 0
KHA2 142256Z 20016KT 32/11 A298 RMK A01 T03190113  RH  028%=      5-min Rain = 0
KHA2 142257Z 20014KT 32/11 A298 RMK A01 T03190109  RH  027%=      5-min Rain = 0
KHA2 142258Z 19016KT 32/11 A298 RMK A01 T03200109  RH  027%=      5-min Rain = 0
KHA2 142259Z 20016KT 32/11 A298 RMK A01 T03200107  RH  027%=      5-min Rain = 0
KHA2 142300Z 20015KT 32/11 A298 RMK A01 T03210107  RH  027%=      5-min Rain = 0
KHA2 142301Z 20015KT 32/11 A298 RMK A01 T03220110  RH  027%=      5-min Rain = 0
KHA2 142302Z 20016G21KT 32/11 A298 RMK A01 T03210111  RH  028%=      5-min Rain = 0
KHA2 142303Z 21016G21KT 32/11 A298 RMK A01 T03200107  RH  027%=      5-min Rain = 0
KHA2 142304Z 20017KT 32/11 A298 RMK A01 T03210107  RH  027%=      5-min Rain = 0
KHA2 142305Z 20019KT 32/10 A2979 RMK A01 T03210099  RH  025%=      5-min Rain = 0
KHA2 142306Z 20022KT 32/10 A2979 RMK A01 T03220096  RH  025%=      5-min Rain = 0
KHA2 142307Z 20018KT 32/10 A2979 RMK A01 T03230095  RH  025%=      5-min Rain = 0
KHA2 142308Z 20017KT 32/10 A2979 RMK A01 T03240098  RH  025%=      5-min Rain = 0
KHA2 142309Z 20014KT 32/10 A2979 RMK A01 T03230097  RH  025%=      5-min Rain = 0
KHA2 142310Z 20014KT 32/10 A2979 RMK A01 T03240097  RH  025%=      5-min Rain = 0
KHA2 142311Z 20014KT 32/10 A2979 RMK A01 T03240099  RH  025%=      5-min Rain = 0
KHA2 142312Z 21013KT 32/10 A2979 RMK A01 T03240098  RH  025%=      5-min Rain = 0
KHA2 142313Z 20014KT 32/10 A2979 RMK A01 T03240097  RH  025%=      5-min Rain = 0
KHA2 142314Z 21014KT 33/09 A2979 RMK A01 T03260093  RH  024%=      5-min Rain = 0
KHA2 142315Z 22016G22KT 33/09 A2979 RMK A01 T03280090  RH  023%=      5-min Rain = 0
KHA2 142316Z 21020KT 33/08 A2979 RMK A01 T03300084  RH  022%=      5-min Rain = 0
KHA2 142317Z 21015KT 33/09 A2979 RMK A01 T03310086  RH  022%=      5-min Rain = 0
KHA2 142318Z 20016KT 33/09 A2979 RMK A01 T03320087  RH  022%=      5-min Rain = 0
KHA2 142319Z 20016KT 33/08 A2979 RMK A01 T03320084  RH  022%=      5-min Rain = 0
KHA2 142320Z 20016KT 33/08 A2979 RMK A01 T03330083  RH  021%=      5-min Rain = 0
KHA2 142321Z 20015G21KT 33/08 A2978 RMK A01 T03320084  RH  022%=      5-min Rain = 0
KHA2 142322Z 19014KT 33/09 A2978 RMK A01 T03320089  RH  022%=      5-min Rain = 0
KHA2 142323Z 20018KT 33/09 A2978 RMK A01 T03330087  RH  022%=      5-min Rain = 0
KHA2 142324Z 20021KT 34/08 A2978 RMK A01 T03350078  RH  020%=      5-min Rain = 0
KHA2 142325Z 21019KT 34/08 A2978 RMK A01 T03390075  RH  020%=      5-min Rain = 0
KHA2 142326Z 22015KT 34/07 A2978 RMK A01 T03440070  RH  018%=      5-min Rain = 0
KHA2 142327Z 22018KT 35/07 A2978 RMK A01 T03470069  RH  018%=      5-min Rain = 0
KHA2 142328Z 23025G34KT 35/06 A2977 RMK A01 T03480060  RH  017%=      5-min Rain = 0
KHA2 142329Z 21020G25KT 35/05 A2977 RMK A01 T03470052  RH  016%=      5-min Rain = 0
KHA2 142330Z 21024G30KT 35/06 A2978 RMK A01 T03470055  RH  016%=      5-min Rain = 0
KHA2 142331Z 20023KT 35/07 A2978 RMK A01 T03460069  RH  018%=      5-min Rain = 0
KHA2 142332Z 20020G25KT 34/08 A2978 RMK A01 T03430078  RH  020%=      5-min Rain = 0
KHA2 142333Z 20021KT 34/08 A2978 RMK A01 T03410080  RH  020%=      5-min Rain = 0
KHA2 142334Z 21021KT 34/08 A2978 RMK A01 T03390083  RH  021%=      5-min Rain = 0
KHA2 142335Z 20019KT 34/09 A2978 RMK A01 T03390086  RH  021%=      5-min Rain = 0
KHA2 142336Z 20018KT 34/09 A2978 RMK A01 T03390087  RH  021%=      5-min Rain = 0
KHA2 142337Z 20019KT 34/09 A2978 RMK A01 T03390085  RH  021%=      5-min Rain = 0
KHA2 142338Z 19019KT 34/09 A2978 RMK A01 T03380086  RH  021%=      5-min Rain = 0
KHA2 142339Z 20018KT 34/09 A2978 RMK A01 T03360088  RH  022%=      5-min Rain = 0
KHA2 142340Z 19016KT 34/09 A2978 RMK A01 T03350089  RH  022%=      5-min Rain = 0
KHA2 142341Z 20017KT 33/09 A2978 RMK A01 T03340089  RH  022%=      5-min Rain = 0
KHA2 142342Z 20016KT 33/09 A2978 RMK A01 T03330089  RH  022%=      5-min Rain = 0
KHA2 142343Z 19016KT 33/09 A2978 RMK A01 T03330090  RH  022%=      5-min Rain = 0
KHA2 142344Z 19017KT 33/09 A2978 RMK A01 T03340089  RH  022%=      5-min Rain = 0
KHA2 142345Z 19014KT 33/09 A2978 RMK A01 T03340090  RH  022%=      5-min Rain = 0
KHA2 142346Z 19016KT 33/09 A2978 RMK A01 T03330092  RH  023%=      5-min Rain = 0
KHA2 142347Z 19015G20KT 33/09 A2978 RMK A01 T03320090  RH  023%=      5-min Rain = 0
KHA2 142348Z 20015KT 33/09 A2978 RMK A01 T03320091  RH  023%=      5-min Rain = 0
KHA2 142349Z 20014G21KT 34/09 A2978 RMK A01 T03350091  RH  022%=      5-min Rain = 0
KHA2 142350Z 19016KT 34/10 A2978 RMK A01 T03390095  RH  022%=      5-min Rain = 0
KHA2 142351Z 20018G23KT 34/09 A2977 RMK A01 T03420092  RH  022%=      5-min Rain = 0
KHA2 142352Z 20019G24KT 35/09 A2977 RMK A01 T03450093  RH  021%=      5-min Rain = 0
KHA2 142353Z 20022KT 35/09 A2977 RMK A01 T03460085  RH  020%=      5-min Rain = 0
KHA2 142354Z 20019G24KT 35/09 A2977 RMK A01 T03460086  RH  020%=      5-min Rain = 0
KHA2 142355Z 20021KT 35/09 A2978 RMK A01 T03460089  RH  021%=      5-min Rain = 0
KHA2 142356Z 20021KT 35/09 A2977 RMK A01 T03450088  RH  021%=      5-min Rain = 0
KHA2 142357Z 20017G23KT 34/09 A2978 RMK A01 T03440090  RH  021%=      5-min Rain = 0
KHA2 142358Z 20019G24KT 34/09 A2977 RMK A01 T03440091  RH  021%=      5-min Rain = 0
KHA2 142359Z 20019G24KT 35/09 A2978 RMK A01 T03450091  RH  021%=      5-min Rain = 0
KHA2 150000Z 20019G25KT 35/09 A2978 RMK A01 T03450090  RH  021%=      5-min Rain = 0
KHA2 150001Z 19016KT 34/09 A2978 RMK A01 T03440091  RH  021%=      5-min Rain = 0
KHA2 150002Z 20017KT 34/09 A2978 RMK A01 T03440092  RH  021%=      5-min Rain = 0
KHA2 150003Z 20017KT 34/10 A2978 RMK A01 T03440095  RH  022%=      5-min Rain = 0
KHA2 150004Z 20016KT 34/09 A2977 RMK A01 T03430094  RH  022%=      5-min Rain = 0
KHA2 150005Z 20018KT 34/09 A2977 RMK A01 T03440093  RH  022%=      5-min Rain = 0
KHA2 150006Z 20019KT 34/09 A2978 RMK A01 T03430091  RH  021%=      5-min Rain = 0
KHA2 150007Z 20017G22KT 34/09 A2977 RMK A01 T03420090  RH  021%=      5-min Rain = 0
KHA2 150008Z 20017G22KT 34/09 A2977 RMK A01 T03420093  RH  022%=      5-min Rain = 0
KHA2 150009Z 21016KT 34/09 A2977 RMK A01 T03420092  RH  022%=      5-min Rain = 0
KHA2 150010Z 20017KT 34/09 A2978 RMK A01 T03420094  RH  022%=      5-min Rain = 0
KHA2 150011Z 21018KT 34/09 A2977 RMK A01 T03420090  RH  021%=      5-min Rain = 0
KHA2 150012Z 20016G21KT 34/09 A2977 RMK A01 T03420092  RH  022%=      5-min Rain = 0
KHA2 150013Z 20016G22KT 34/09 A2977 RMK A01 T03410094  RH  022%=      5-min Rain = 0
KHA2 150014Z 20016G22KT 34/09 A2977 RMK A01 T03410093  RH  022%=      5-min Rain = 0
KHA2 150015Z 20020KT 34/09 A2977 RMK A01 T03400091  RH  022%=      5-min Rain = 0
KHA2 150016Z 20017KT 34/09 A2977 RMK A01 T03400091  RH  022%=      5-min Rain = 0
KHA2 150017Z 20017KT 34/09 A2977 RMK A01 T03390091  RH  022%=      5-min Rain = 0
KHA2 150018Z 20017KT 34/09 A2977 RMK A01 T03390090  RH  022%=      5-min Rain = 0
KHA2 150019Z 20016G21KT 34/09 A2977 RMK A01 T03380090  RH  022%=      5-min Rain = 0
KHA2 150020Z 20016KT 34/09 A2977 RMK A01 T03380090  RH  022%=      5-min Rain = 0
KHA2 150021Z 20013KT 34/09 A2977 RMK A01 T03380090  RH  022%=      5-min Rain = 0
KHA2 150022Z 20012G17KT 34/09 A2977 RMK A01 T03390091  RH  022%=      5-min Rain = 0
KHA2 150023Z 20014KT 34/09 A2977 RMK A01 T03390090  RH  022%=      5-min Rain = 0
KHA2 150024Z 20013KT 34/09 A2977 RMK A01 T03390089  RH  022%=      5-min Rain = 0
KHA2 150025Z 19015KT 34/09 A2977 RMK A01 T03380087  RH  021%=      5-min Rain = 0
KHA2 150026Z 19015KT 34/09 A2977 RMK A01 T03380085  RH  021%=      5-min Rain = 0
KHA2 150027Z 19017G22KT 34/09 A2977 RMK A01 T03370087  RH  021%=      5-min Rain = 0
KHA2 150028Z 20018KT 34/09 A2977 RMK A01 T03370086  RH  021%=      5-min Rain = 0
KHA2 150029Z 20013KT 34/09 A2977 RMK A01 T03370086  RH  021%=      5-min Rain = 0
KHA2 150030Z 20012KT 34/09 A2977 RMK A01 T03370088  RH  022%=      5-min Rain = 0
KHA2 150031Z 20016KT 34/09 A2977 RMK A01 T03370090  RH  022%=      5-min Rain = 0
KHA2 150032Z 19014KT 34/09 A2977 RMK A01 T03370091  RH  022%=      5-min Rain = 0
KHA2 150033Z 20014KT 34/09 A2977 RMK A01 T03360092  RH  022%=      5-min Rain = 0
KHA2 150034Z 20013KT 34/09 A2977 RMK A01 T03360092  RH  022%=      5-min Rain = 0
KHA2 150035Z 20017KT 34/09 A2977 RMK A01 T03370089  RH  022%=      5-min Rain = 0
KHA2 150036Z 20015KT 34/09 A2977 RMK A01 T03370086  RH  021%=      5-min Rain = 0
KHA2 150037Z 21016KT 34/09 A2977 RMK A01 T03370087  RH  021%=      5-min Rain = 0
KHA2 150038Z 21015KT 34/09 A2977 RMK A01 T03370085  RH  021%=      5-min Rain = 0
KHA2 150039Z 20013KT 34/09 A2977 RMK A01 T03370086  RH  021%=      5-min Rain = 0
KHA2 150040Z 20012KT 34/09 A2977 RMK A01 T03370088  RH  022%=      5-min Rain = 0
KHA2 150041Z 19014KT 34/09 A2977 RMK A01 T03350089  RH  022%=      5-min Rain = 0
KHA2 150042Z 19016KT 33/09 A2977 RMK A01 T03310089  RH  022%=      5-min Rain = 0
KHA2 150043Z 20015KT 33/09 A2977 RMK A01 T03290086  RH  022%=      5-min Rain = 0
KHA2 150044Z 20011KT 33/09 A2977 RMK A01 T03280089  RH  023%=      5-min Rain = 0
KHA2 150045Z 20013KT 33/09 A2977 RMK A01 T03260089  RH  023%=      5-min Rain = 0
KHA2 150046Z 20014KT 33/09 A2977 RMK A01 T03250088  RH  023%=      5-min Rain = 0
KHA2 150047Z 20013KT 32/09 A2977 RMK A01 T03240086  RH  023%=      5-min Rain = 0
KHA2 150048Z 20014KT 32/09 A2978 RMK A01 T03230087  RH  023%=      5-min Rain = 0
KHA2 150049Z 20013KT 32/09 A2978 RMK A01 T03220088  RH  024%=      5-min Rain = 0
KHA2 150050Z 20013KT 32/09 A2978 RMK A01 T03210088  RH  024%=      5-min Rain = 0
KHA2 150051Z 20013KT 32/09 A2978 RMK A01 T03200088  RH  024%=      5-min Rain = 0
KHA2 150052Z 20011KT 32/09 A2978 RMK A01 T03190090  RH  024%=      5-min Rain = 0
KHA2 150053Z 20014KT 32/09 A2977 RMK A01 T03180089  RH  024%=      5-min Rain = 0
KHA2 150054Z 20014KT 32/09 A2977 RMK A01 T03180087  RH  024%=      5-min Rain = 0
KHA2 150055Z 21015G22KT 32/09 A2977 RMK A01 T03180088  RH  024%=      5-min Rain = 0
KHA2 150056Z 21016KT 32/09 A2977 RMK A01 T03180087  RH  024%=      5-min Rain = 0
KHA2 150057Z 21015G20KT 32/09 A2978 RMK A01 T03180088  RH  024%=      5-min Rain = 0
KHA2 150058Z 21019KT 32/09 A2978 RMK A01 T03170087  RH  024%=      5-min Rain = 0
KHA2 150059Z 21016KT 32/09 A2977 RMK A01 T03170085  RH  024%=      5-min Rain = 0
KHA2 150100Z 21016KT 32/09 A2978 RMK A01 T03180086  RH  024%=      5-min Rain = 0
KHA2 150101Z 21017KT 32/09 A2978 RMK A01 T03170085  RH  024%=      5-min Rain = 0
KHA2 150102Z 21015KT 32/08 A2978 RMK A01 T03170084  RH  024%=      5-min Rain = 0
KHA2 150103Z 21022G27KT 32/08 A2978 RMK A01 T03170083  RH  023%=      5-min Rain = 0
KHA2 150104Z 20018KT 32/08 A2978 RMK A01 T03170080  RH  023%=      5-min Rain = 0
KHA2 150105Z 20018KT 32/08 A2978 RMK A01 T03170080  RH  023%=      5-min Rain = 0
KHA2 150106Z 20016G21KT 32/08 A2978 RMK A01 T03160080  RH  023%=      5-min Rain = 0
KHA2 150107Z 20018KT 32/08 A2978 RMK A01 T03160081  RH  023%=      5-min Rain = 0
KHA2 150108Z 20017KT 32/08 A2978 RMK A01 T03150081  RH  023%=      5-min Rain = 0
KHA2 150109Z 20019G25KT 31/08 A2978 RMK A01 T03140081  RH  023%=      5-min Rain = 0
KHA2 150110Z 20020KT 31/08 A2978 RMK A01 T03140081  RH  024%=      5-min Rain = 0
KHA2 150111Z 20017KT 31/08 A2978 RMK A01 T03140082  RH  024%=      5-min Rain = 0
KHA2 150112Z 20016KT 31/08 A2978 RMK A01 T03130083  RH  024%=      5-min Rain = 0
KHA2 150113Z 20014KT 31/08 A2978 RMK A01 T03120084  RH  024%=      5-min Rain = 0
KHA2 150114Z 20015KT 31/09 A2978 RMK A01 T03100085  RH  025%=      5-min Rain = 0
KHA2 150115Z 20017KT 31/08 A2978 RMK A01 T03090084  RH  025%=      5-min Rain = 0
KHA2 150116Z 19014KT 31/08 A2978 RMK A01 T03090084  RH  025%=      5-min Rain = 0
KHA2 150117Z 20016G23KT 31/09 A2978 RMK A01 T03090085  RH  025%=      5-min Rain = 0
KHA2 150118Z 19017KT 31/09 A2978 RMK A01 T03080085  RH  025%=      5-min Rain = 0
KHA2 150119Z 19019KT 31/09 A2978 RMK A01 T03070085  RH  025%=      5-min Rain = 0
KHA2 150120Z 19017KT 31/09 A2978 RMK A01 T03070087  RH  025%=      5-min Rain = 0
KHA2 150121Z 19016KT 31/09 A2978 RMK A01 T03050088  RH  026%=      5-min Rain = 0
KHA2 150122Z 19018G23KT 30/09 A2978 RMK A01 T03030088  RH  026%=      5-min Rain = 0
KHA2 150123Z 19018KT 30/09 A2978 RMK A01 T03020088  RH  026%=      5-min Rain = 0
KHA2 150124Z 19020KT 30/09 A2978 RMK A01 T03010088  RH  027%=      5-min Rain = 0
KHA2 150125Z 19018KT 30/09 A2978 RMK A01 T03000088  RH  027%=      5-min Rain = 0
KHA2 150126Z 19018KT 30/09 A2978 RMK A01 T03000089  RH  027%=      5-min Rain = 0
KHA2 150127Z 19019KT 30/09 A2978 RMK A01 T02980090  RH  027%=      5-min Rain = 0
KHA2 150128Z 19021KT 30/09 A2978 RMK A01 T02980090  RH  027%=      5-min Rain = 0
KHA2 150129Z 19019KT 30/09 A2978 RMK A01 T02970090  RH  028%=      5-min Rain = 0
KHA2 150130Z 19020KT 30/09 A2978 RMK A01 T02970092  RH  028%=      5-min Rain = 0
KHA2 150131Z 19017KT 30/09 A2978 RMK A01 T02970093  RH  028%=      5-min Rain = 0
KHA2 150132Z 19021KT 30/10 A2978 RMK A01 T02960095  RH  029%=      5-min Rain = 0
KHA2 150133Z 19020KT 30/10 A2978 RMK A01 T02960096  RH  029%=      5-min Rain = 0
KHA2 150134Z 20019KT 30/10 A2978 RMK A01 T02950097  RH  029%=      5-min Rain = 0
KHA2 150135Z 20019KT 30/10 A2978 RMK A01 T02950098  RH  029%=      5-min Rain = 0
KHA2 150136Z 20018G23KT 30/10 A2978 RMK A01 T02950099  RH  030%=      5-min Rain = 0
KHA2 150137Z 20020KT 30/10 A2978 RMK A01 T02950100  RH  030%=      5-min Rain = 0
KHA2 150138Z 20019KT 29/10 A2978 RMK A01 T02940100  RH  030%=      5-min Rain = 0
KHA2 150139Z 20020KT 29/10 A2978 RMK A01 T02940100  RH  030%=      5-min Rain = 0
KHA2 150140Z 20020KT 30/10 A2978 RMK A01 T02950101  RH  030%=      5-min Rain = 0
KHA2 150141Z 20020KT 30/10 A2978 RMK A01 T02950102  RH  030%=      5-min Rain = 0
KHA2 150142Z 20018KT 30/10 A2978 RMK A01 T02950102  RH  030%=      5-min Rain = 0
KHA2 150143Z 20017KT 30/10 A2978 RMK A01 T02950103  RH  030%=      5-min Rain = 0
KHA2 150144Z 19019KT 30/10 A2978 RMK A01 T02950104  RH  031%=      5-min Rain = 0
KHA2 150145Z 20016KT 29/10 A2978 RMK A01 T02940104  RH  031%=      5-min Rain = 0
KHA2 150146Z 19016KT 29/10 A2978 RMK A01 T02940104  RH  031%=      5-min Rain = 0
KHA2 150147Z 20018G23KT 29/10 A2978 RMK A01 T02930104  RH  031%=      5-min Rain = 0
KHA2 150148Z 19018G23KT 29/10 A2978 RMK A01 T02940103  RH  031%=      5-min Rain = 0
KHA2 150149Z 20017KT 29/10 A2978 RMK A01 T02940103  RH  031%=      5-min Rain = 0
KHA2 150150Z 20017KT 29/10 A2978 RMK A01 T02940103  RH  030%=      5-min Rain = 0
KHA2 150151Z 20016KT 29/10 A2978 RMK A01 T02940102  RH  030%=      5-min Rain = 0
KHA2 150152Z 20017KT 29/10 A2978 RMK A01 T02930101  RH  030%=      5-min Rain = 0
KHA2 150153Z 20019KT 29/10 A2978 RMK A01 T02930099  RH  030%=      5-min Rain = 0
KHA2 150154Z 20020KT 29/10 A2977 RMK A01 T02930097  RH  029%=      5-min Rain = 0
KHA2 150155Z 20020KT 29/09 A2977 RMK A01 T02940094  RH  029%=      5-min Rain = 0
KHA2 150156Z 19018KT 29/09 A2978 RMK A01 T02940094  RH  029%=      5-min Rain = 0
KHA2 150157Z 19018KT 29/09 A2978 RMK A01 T02940094  RH  029%=      5-min Rain = 0
KHA2 150158Z 19020KT 29/09 A2978 RMK A01 T02930092  RH  028%=      5-min Rain = 0
KHA2 150159Z 19018G23KT 29/09 A2977 RMK A01 T02930091  RH  028%=      5-min Rain = 0
KHA2 150200Z 19018KT 29/09 A2977 RMK A01 T02930090  RH  028%=      5-min Rain = 0
KHA2 150201Z 19018KT 29/09 A2977 RMK A01 T02930089  RH  028%=      5-min Rain = 0
KHA2 150202Z 19019KT 29/09 A2977 RMK A01 T02920088  RH  028%=      5-min Rain = 0
KHA2 150203Z 19017G22KT 29/09 A2977 RMK A01 T02920086  RH  028%=      5-min Rain = 0
KHA2 150204Z 19019KT 29/09 A2977 RMK A01 T02920085  RH  027%=      5-min Rain = 0
KHA2 150205Z 20018KT 29/08 A2977 RMK A01 T02910084  RH  027%=      5-min Rain = 0
KHA2 150206Z 20017KT 29/08 A2977 RMK A01 T02920084  RH  027%=      5-min Rain = 0
KHA2 150207Z 19016KT 29/08 A2977 RMK A01 T02910084  RH  027%=      5-min Rain = 0
KHA2 150208Z 19016KT 29/08 A2977 RMK A01 T02900084  RH  027%=      5-min Rain = 0
KHA2 150209Z 20017KT 29/08 A2977 RMK A01 T02890083  RH  027%=      5-min Rain = 0
KHA2 150210Z 20015KT 29/08 A2977 RMK A01 T02890083  RH  027%=      5-min Rain = 0
KHA2 150211Z 20018KT 29/08 A2977 RMK A01 T02880083  RH  028%=      5-min Rain = 0
KHA2 150212Z 19019KT 29/08 A2977 RMK A01 T02880082  RH  027%=      5-min Rain = 0
KHA2 150213Z 19017KT 29/08 A2977 RMK A01 T02880082  RH  027%=      5-min Rain = 0
KHA2 150214Z 19017KT 29/08 A2977 RMK A01 T02880083  RH  028%=      5-min Rain = 0
KHA2 150215Z 20016KT 29/08 A2977 RMK A01 T02870082  RH  028%=      5-min Rain = 0
KHA2 150216Z 19016KT 29/08 A2977 RMK A01 T02870083  RH  028%=      5-min Rain = 0
KHA2 150217Z 20016KT 29/08 A2978 RMK A01 T02860082  RH  028%=      5-min Rain = 0
KHA2 150218Z 20015KT 29/08 A2977 RMK A01 T02850083  RH  028%=      5-min Rain = 0
KHA2 150219Z 20014KT 28/08 A2977 RMK A01 T02840084  RH  028%=      5-min Rain = 0
KHA2 150220Z 19013KT 28/08 A2977 RMK A01 T02830084  RH  029%=      5-min Rain = 0
KHA2 150221Z 19015KT 28/08 A2977 RMK A01 T02810084  RH  029%=      5-min Rain = 0
KHA2 150222Z 19015KT 28/08 A2978 RMK A01 T02800084  RH  029%=      5-min Rain = 0
KHA2 150223Z 19016KT 28/08 A2978 RMK A01 T02800084  RH  029%=      5-min Rain = 0
KHA2 150224Z 20015KT 28/08 A2978 RMK A01 T02800083  RH  029%=      5-min Rain = 0
KHA2 150225Z 20015KT 28/08 A2978 RMK A01 T02790084  RH  029%=      5-min Rain = 0
KHA2 150226Z 20015KT 28/08 A2978 RMK A01 T02780083  RH  029%=      5-min Rain = 0
KHA2 150227Z 19016KT 28/08 A2978 RMK A01 T02780083  RH  029%=      5-min Rain = 0
KHA2 150228Z 20015KT 28/08 A2978 RMK A01 T02780083  RH  029%=      5-min Rain = 0
KHA2 150229Z 20012KT 28/08 A2978 RMK A01 T02780083  RH  029%=      5-min Rain = 0
KHA2 150230Z 20013KT 28/08 A2978 RMK A01 T02770083  RH  030%=      5-min Rain = 0
KHA2 150231Z 20011KT 28/08 A2978 RMK A01 T02760081  RH  029%=      5-min Rain = 0
KHA2 150232Z 20012KT 28/08 A2978 RMK A01 T02760082  RH  029%=      5-min Rain = 0
KHA2 150233Z 20012KT 28/08 A2978 RMK A01 T02750080  RH  029%=      5-min Rain = 0
KHA2 150234Z 20013KT 28/08 A2978 RMK A01 T02750078  RH  029%=      5-min Rain = 0
KHA2 150235Z 21011KT 28/08 A2978 RMK A01 T02750076  RH  028%=      5-min Rain = 0
KHA2 150236Z 21011KT 28/08 A2978 RMK A01 T02760076  RH  028%=      5-min Rain = 0
KHA2 150237Z 20010KT 28/08 A2978 RMK A01 T02760076  RH  028%=      5-min Rain = 0
KHA2 150238Z 20012KT 27/08 A2978 RMK A01 T02740076  RH  028%=      5-min Rain = 0
KHA2 150239Z 19014KT 27/08 A2978 RMK A01 T02730075  RH  028%=      5-min Rain = 0
KHA2 150240Z 19014KT 27/07 A2978 RMK A01 T02730073  RH  028%=      5-min Rain = 0
KHA2 150241Z 19015KT 27/07 A2978 RMK A01 T02730073  RH  028%=      5-min Rain = 0
KHA2 150242Z 19015KT 27/07 A2978 RMK A01 T02730072  RH  028%=      5-min Rain = 0
KHA2 150243Z 19015KT 27/07 A2978 RMK A01 T02730073  RH  028%=      5-min Rain = 0
KHA2 150244Z 19016KT 27/07 A2978 RMK A01 T02730073  RH  028%=      5-min Rain = 0
KHA2 150245Z 20014KT 27/07 A2978 RMK A01 T02730072  RH  028%=      5-min Rain = 0
KHA2 150246Z 20014KT 27/07 A2978 RMK A01 T02720072  RH  028%=      5-min Rain = 0
KHA2 150247Z 20014KT 27/07 A2978 RMK A01 T02710072  RH  028%=      5-min Rain = 0
KHA2 150248Z 20013KT 27/07 A2978 RMK A01 T02700071  RH  028%=      5-min Rain = 0
KHA2 150249Z 20013KT 27/07 A2978 RMK A01 T02700071  RH  028%=      5-min Rain = 0
KHA2 150250Z 19014KT 27/07 A2978 RMK A01 T02690072  RH  029%=      5-min Rain = 0
KHA2 150251Z 19015KT 27/07 A2979 RMK A01 T02670072  RH  029%=      5-min Rain = 0
KHA2 150252Z 19014KT 27/07 A2979 RMK A01 T02660072  RH  029%=      5-min Rain = 0
KHA2 150253Z 19013KT 27/07 A2979 RMK A01 T02650072  RH  029%=      5-min Rain = 0
KHA2 150254Z 19014KT 27/07 A2979 RMK A01 T02650071  RH  029%=      5-min Rain = 0
KHA2 150255Z 19013KT 27/07 A2979 RMK A01 T02650070  RH  029%=      5-min Rain = 0
KHA2 150256Z 19014KT 27/07 A2979 RMK A01 T02650071  RH  029%=      5-min Rain = 0
KHA2 150257Z 19013KT 27/07 A2979 RMK A01 T02650072  RH  029%=      5-min Rain = 0
KHA2 150258Z 19013KT 26/07 A2979 RMK A01 T02630072  RH  030%=      5-min Rain = 0
KHA2 150259Z 19012KT 26/07 A2979 RMK A01 T02610072  RH  030%=      5-min Rain = 0
KHA2 150300Z 19013KT 26/07 A2979 RMK A01 T02600072  RH  030%=      5-min Rain = 0
KHA2 150301Z 19014KT 26/07 A2979 RMK A01 T02600072  RH  030%=      5-min Rain = 0
KHA2 150302Z 18013KT 26/07 A2979 RMK A01 T02590071  RH  030%=      5-min Rain = 0
KHA2 150303Z 19014KT 26/07 A2979 RMK A01 T02590070  RH  030%=      5-min Rain = 0
KHA2 150304Z 19013KT 26/07 A2979 RMK A01 T02580071  RH  030%=      5-min Rain = 0
KHA2 150305Z 18013KT 26/07 A2979 RMK A01 T02570071  RH  030%=      5-min Rain = 0
KHA2 150306Z 19013KT 26/07 A2979 RMK A01 T02560071  RH  031%=      5-min Rain = 0
KHA2 150307Z 19013KT 26/07 A2979 RMK A01 T02560071  RH  031%=      5-min Rain = 0
KHA2 150308Z 18012KT 25/07 A2979 RMK A01 T02540071  RH  031%=      5-min Rain = 0
KHA2 150309Z 18013KT 25/07 A2979 RMK A01 T02530071  RH  031%=      5-min Rain = 0
KHA2 150310Z 18012KT 25/07 A2979 RMK A01 T02530071  RH  031%=      5-min Rain = 0
KHA2 150311Z 18013KT 25/07 A2979 RMK A01 T02520071  RH  032%=      5-min Rain = 0
KHA2 150312Z 18013KT 25/07 A2979 RMK A01 T02520072  RH  032%=      5-min Rain = 0
KHA2 150313Z 18012KT 25/07 A2979 RMK A01 T02510072  RH  032%=      5-min Rain = 0
KHA2 150314Z 18012KT 25/07 A2979 RMK A01 T02510072  RH  032%=      5-min Rain = 0
KHA2 150315Z 18012KT 25/07 A2979 RMK A01 T02490072  RH  032%=      5-min Rain = 0
KHA2 150316Z 18012KT 25/07 A298 RMK A01 T02480072  RH  032%=      5-min Rain = 0
KHA2 150317Z 18012KT 25/07 A298 RMK A01 T02480072  RH  032%=      5-min Rain = 0
KHA2 150318Z 18012KT 25/07 A298 RMK A01 T02480072  RH  032%=      5-min Rain = 0
KHA2 150319Z 19013KT 25/07 A298 RMK A01 T02480071  RH  032%=      5-min Rain = 0
KHA2 150320Z 19012KT 25/07 A298 RMK A01 T02480071  RH  032%=      5-min Rain = 0
KHA2 150321Z 18012KT 25/07 A298 RMK A01 T02480072  RH  032%=      5-min Rain = 0
KHA2 150322Z 18011KT 25/07 A298 RMK A01 T02480072  RH  032%=      5-min Rain = 0
KHA2 150323Z 18012KT 25/07 A298 RMK A01 T02470072  RH  033%=      5-min Rain = 0
KHA2 150324Z 18012KT 25/07 A298 RMK A01 T02470073  RH  033%=      5-min Rain = 0
KHA2 150325Z 18013KT 25/07 A298 RMK A01 T02460073  RH  033%=      5-min Rain = 0
KHA2 150326Z 18013G18KT 25/07 A298 RMK A01 T02450072  RH  033%=      5-min Rain = 0
KHA2 150327Z 18013KT 25/07 A298 RMK A01 T02460072  RH  033%=      5-min Rain = 0
KHA2 150328Z 18013KT 25/07 A298 RMK A01 T02470072  RH  033%=      5-min Rain = 0
KHA2 150329Z 18013KT 25/07 A298 RMK A01 T02480073  RH  033%=      5-min Rain = 0
KHA2 150330Z 18013KT 25/07 A298 RMK A01 T02470072  RH  033%=      5-min Rain = 0
KHA2 150331Z 18013KT 25/07 A298 RMK A01 T02480072  RH  033%=      5-min Rain = 0
KHA2 150332Z 18013KT 25/07 A298 RMK A01 T02490073  RH  033%=      5-min Rain = 0
KHA2 150333Z 18014KT 25/07 A298 RMK A01 T02490074  RH  033%=      5-min Rain = 0
KHA2 150334Z 18015KT 25/07 A2981 RMK A01 T02500074  RH  033%=      5-min Rain = 0
KHA2 150335Z 18014KT 25/08 A2981 RMK A01 T02510075  RH  033%=      5-min Rain = 0
KHA2 150336Z 18014KT 25/08 A2981 RMK A01 T02520076  RH  032%=      5-min Rain = 0
KHA2 150337Z 18015KT 25/08 A2981 RMK A01 T02540077  RH  032%=      5-min Rain = 0
KHA2 150338Z 18015KT 26/08 A2981 RMK A01 T02560078  RH  032%=      5-min Rain = 0
KHA2 150339Z 18018KT 26/08 A2981 RMK A01 T02580079  RH  032%=      5-min Rain = 0
KHA2 150340Z 18018KT 26/08 A2981 RMK A01 T02610080  RH  032%=      5-min Rain = 0
KHA2 150341Z 18018KT 26/08 A2981 RMK A01 T02620080  RH  031%=      5-min Rain = 0
KHA2 150342Z 17017KT 26/08 A2981 RMK A01 T02630081  RH  031%=      5-min Rain = 0
KHA2 150343Z 17016KT 26/08 A2981 RMK A01 T02640081  RH  031%=      5-min Rain = 0
KHA2 150344Z 17017KT 26/08 A2981 RMK A01 T02630082  RH  032%=      5-min Rain = 0
KHA2 150345Z 17017KT 26/08 A2981 RMK A01 T02630082  RH  032%=      5-min Rain = 0
KHA2 150346Z 17017KT 26/08 A2981 RMK A01 T02640083  RH  032%=      5-min Rain = 0
KHA2 150347Z 17016KT 26/08 A2982 RMK A01 T02640083  RH  032%=      5-min Rain = 0
KHA2 150348Z 17017G22KT 27/08 A2982 RMK A01 T02650083  RH  032%=      5-min Rain = 0
KHA2 150349Z 17018G24KT 27/08 A2982 RMK A01 T02660083  RH  031%=      5-min Rain = 0
KHA2 150350Z 17019KT 27/08 A2982 RMK A01 T02670083  RH  031%=      5-min Rain = 0
KHA2 150351Z 17020KT 27/08 A2982 RMK A01 T02670084  RH  031%=      5-min Rain = 0
KHA2 150352Z 16018G23KT 27/09 A2982 RMK A01 T02680086  RH  032%=      5-min Rain = 0
KHA2 150353Z 16020G25KT 27/09 A2981 RMK A01 T02690090  RH  032%=      5-min Rain = 0
KHA2 150354Z 17021KT 27/09 A2982 RMK A01 T02690092  RH  033%=      5-min Rain = 0
KHA2 150355Z 16022KT 27/10 A2982 RMK A01 T02690095  RH  033%=      5-min Rain = 0
KHA2 150356Z 17024G30KT 27/10 A2982 RMK A01 T02700098  RH  034%=      5-min Rain = 0
KHA2 150357Z 17022KT 27/10 A2982 RMK A01 T02700100  RH  035%=      5-min Rain = 0
KHA2 150358Z 17021KT 27/10 A2982 RMK A01 T02700103  RH  035%=      5-min Rain = 0
KHA2 150359Z 17023KT 27/11 A2982 RMK A01 T02690108  RH  037%=      5-min Rain = 0
KHA2 150400Z 17020KT 27/11 A2982 RMK A01 T02690112  RH  037%=      5-min Rain = 0
KHA2 150401Z 17021KT 27/12 A2982 RMK A01 T02690115  RH  038%=      5-min Rain = 0
KHA2 150402Z 17022KT 27/12 A2981 RMK A01 T02690117  RH  039%=      5-min Rain = 0
KHA2 150403Z 17024G29KT 27/12 A2982 RMK A01 T02680121  RH  040%=      5-min Rain = 0
KHA2 150404Z 17025G31KT 27/12 A2981 RMK A01 T02680122  RH  040%=      5-min Rain = 0
KHA2 150405Z 17027KT 27/12 A2981 RMK A01 T02680124  RH  041%=      5-min Rain = 0
KHA2 150406Z 17027G33KT 27/13 A2982 RMK A01 T02700126  RH  041%=      5-min Rain = 0
KHA2 150407Z 17024KT 27/13 A2982 RMK A01 T02700126  RH  041%=      5-min Rain = 0
KHA2 150408Z 17023KT 27/13 A2982 RMK A01 T02690128  RH  042%=      5-min Rain = 0
KHA2 150409Z 17021KT 27/13 A2982 RMK A01 T02680130  RH  042%=      5-min Rain = 0
KHA2 150410Z 18023KT 27/13 A2982 RMK A01 T02670132  RH  043%=      5-min Rain = 0
KHA2 150411Z 18022KT 27/14 A2982 RMK A01 T02670135  RH  044%=      5-min Rain = 0
KHA2 150412Z 18023KT 27/14 A2982 RMK A01 T02670136  RH  044%=      5-min Rain = 0
KHA2 150413Z 18022KT 27/14 A2982 RMK A01 T02670140  RH  045%=      5-min Rain = 0
KHA2 150414Z 18020G25KT 27/14 A2982 RMK A01 T02670142  RH  046%=      5-min Rain = 0
KHA2 150415Z 18023KT 27/15 A2982 RMK A01 T02670145  RH  047%=      5-min Rain = 0
KHA2 150416Z 18022KT 27/15 A2982 RMK A01 T02670147  RH  048%=      5-min Rain = 0
KHA2 150417Z 18021KT 27/15 A2982 RMK A01 T02670148  RH  048%=      5-min Rain = 0
KHA2 150418Z 18023KT 27/15 A2982 RMK A01 T02670151  RH  049%=      5-min Rain = 0
KHA2 150419Z 18023KT 27/15 A2982 RMK A01 T02670153  RH  049%=      5-min Rain = 0
KHA2 150420Z 17020KT 27/16 A2982 RMK A01 T02680155  RH  050%=      5-min Rain = 0
KHA2 150421Z 17023KT 27/16 A2982 RMK A01 T02680156  RH  050%=      5-min Rain = 0
KHA2 150422Z 17021G26KT 27/16 A2982 RMK A01 T02670157  RH  051%=      5-min Rain = 0
KHA2 150423Z 17022KT 27/16 A2982 RMK A01 T02670158  RH  051%=      5-min Rain = 0
KHA2 150424Z 18024KT 27/16 A2982 RMK A01 T02670159  RH  052%=      5-min Rain = 0
KHA2 150425Z 17023G28KT 27/16 A2982 RMK A01 T02670160  RH  052%=      5-min Rain = 0
KHA2 150426Z 18025G30KT 27/16 A2982 RMK A01 T02660160  RH  052%=      5-min Rain = 0
KHA2 150427Z 18024G29KT 27/16 A2982 RMK A01 T02670162  RH  053%=      5-min Rain = 0
KHA2 150428Z 18022G27KT 27/16 A2982 RMK A01 T02660162  RH  053%=      5-min Rain = 0
KHA2 150429Z 18021KT 27/16 A2982 RMK A01 T02660163  RH  053%=      5-min Rain = 0
KHA2 150430Z 18020KT 27/16 A2982 RMK A01 T02650163  RH  053%=      5-min Rain = 0
KHA2 150431Z 18019G24KT 27/16 A2982 RMK A01 T02650163  RH  054%=      5-min Rain = 0
KHA2 150432Z 18020G27KT 26/16 A2982 RMK A01 T02630163  RH  054%=      5-min Rain = 0
KHA2 150433Z 18023G28KT 26/16 A2982 RMK A01 T02630164  RH  054%=      5-min Rain = 0
KHA2 150434Z 18021KT 26/16 A2982 RMK A01 T02630164  RH  055%=      5-min Rain = 0
KHA2 150435Z 18021KT 26/16 A2982 RMK A01 T02620164  RH  055%=      5-min Rain = 0
KHA2 150436Z 18017G23KT 26/17 A2982 RMK A01 T02620165  RH  055%=      5-min Rain = 0
KHA2 150437Z 18018KT 26/17 A2982 RMK A01 T02610165  RH  056%=      5-min Rain = 0
KHA2 150438Z 18021KT 26/17 A2982 RMK A01 T02600165  RH  056%=      5-min Rain = 0
KHA2 150439Z 18020KT 26/17 A2982 RMK A01 T02600166  RH  056%=      5-min Rain = 0
KHA2 150440Z 18020KT 26/17 A2982 RMK A01 T02600166  RH  056%=      5-min Rain = 0
KHA2 150441Z 18020KT 26/17 A2982 RMK A01 T02590166  RH  057%=      5-min Rain = 0
KHA2 150442Z 18020KT 26/17 A2983 RMK A01 T02580166  RH  057%=      5-min Rain = 0
KHA2 150443Z 18019KT 26/17 A2983 RMK A01 T02580167  RH  057%=      5-min Rain = 0
KHA2 150444Z 18018KT 26/17 A2983 RMK A01 T02570167  RH  057%=      5-min Rain = 0
KHA2 150445Z 18019G24KT 26/17 A2983 RMK A01 T02560167  RH  058%=      5-min Rain = 0
KHA2 150446Z 18019KT 26/17 A2983 RMK A01 T02560167  RH  058%=      5-min Rain = 0
KHA2 150447Z 18019G24KT 26/17 A2983 RMK A01 T02560168  RH  058%=      5-min Rain = 0
KHA2 150448Z 18019KT 26/17 A2983 RMK A01 T02560168  RH  058%=      5-min Rain = 0
KHA2 150449Z 18021G27KT 26/17 A2983 RMK A01 T02560169  RH  059%=      5-min Rain = 0
KHA2 150450Z 19018KT 26/17 A2983 RMK A01 T02560169  RH  059%=      5-min Rain = 0
KHA2 150451Z 18021KT 26/17 A2983 RMK A01 T02550169  RH  059%=      5-min Rain = 0
KHA2 150452Z 19018KT 26/17 A2983 RMK A01 T02550169  RH  059%=      5-min Rain = 0
KHA2 150453Z 19020KT 26/17 A2983 RMK A01 T02550169  RH  059%=      5-min Rain = 0
KHA2 150454Z 19020KT 26/17 A2983 RMK A01 T02550169  RH  059%=      5-min Rain = 0
KHA2 150455Z 19020KT 26/17 A2983 RMK A01 T02550169  RH  059%=      5-min Rain = 0
KHA2 150456Z 19019KT 26/17 A2983 RMK A01 T02550169  RH  059%=      5-min Rain = 0
KHA2 150457Z 19020KT 26/17 A2983 RMK A01 T02550169  RH  059%=      5-min Rain = 0
KHA2 150458Z 19022G29KT 26/17 A2983 RMK A01 T02560170  RH  059%=      5-min Rain = 0
KHA2 150459Z 19020KT 26/17 A2983 RMK A01 T02560170  RH  059%=      5-min Rain = 0

Page generated in 0.0709 seconds.